NOAA Web Site Link Tides and Currents Home Page Transparent placeholder image

PORTS® Data Listing: 8638901 CBBT, Chesapeake Channel, VA

CO-OPS RAW PORTS DATA

************************      PRELIMINARY DATA      ************************** 

     THIS RAW DATA HAS NOT BEEN SUBJECT TO THE NATIONAL OCEAN SERVICE'S        
     QUALITY CONTROL OR QUALITY ASSURANCE PROCEDURES AND DOES NOT MEET         
     THE CRITERIA AND STANDARDS OF OFFICIAL NATIONAL OCEAN SERVICE             
     DATA.  IT IS RELEASED FOR LIMITED PUBLIC USE AS PRELIMINARY DATA TO       
     BE USED ONLY WITH APPROPRIATE CAUTION.                                    

************************      PRELIMINARY DATA      ************************** 


       CD   -   Calendar date
       T    -   Time
       TZ   -   Timezone
       PW   -   Predicted water level (feet above MLLW)
       OW   -   Observed water level (feet above MLLW)
       WS   -   Wind speed (knots)
       WD   -   Wind direction (degrees true)
       WG   -   Wind gust (knots)
       AT   -   Air temperature (degrees farenheit)
       WT   -   Water temperature (degrees farenheit)
       AP   -   Air pressure (millibars)
       SA   -   Salinty (PSU - Practical Salinity Units)
       SG   -   Specific gravity
       RH   -   Relative humidity
       AG   -   Air gap (feet)
       VI   -   Visibility (nautical miles)

       ** NOTE **
       A variable that has its data fields filled with "9"s, indicates that
       data was not collected for that sample period.
       **********

NOTICE OF PROVISIONAL DATUM
These datums and any data referred to said datum are PROVISIONAL and
subject to revision until they have been thoroughly reviewed and received final
approval.  Subsequent review based on field inspections and additional
measurements may result in revisions to the data and datums.  Data users are
cautioned to consider the conditional nature of this information before using
it for critical decisions such as those that concern physical or public safety.
Only after meeting all standards for quality control assurance will the datums
be classified as Accepted Datums.

STATION NAME: CBBT, Chesapeake Channel (8638901)
****************************************************************************************************
    CD       T    TZ    PW     OW    WS   WD   WG    AT    WT    AP    SA    SG     RH    AG   VI
****************************************************************************************************
2018/01/13 02:48 EST    1.53   1.76   12  233   16  52.0 -99.9 1000.3 -9.9 -9.999 -99.9 -99.99 -9.99
2018/01/13 02:54 EST    1.59   1.74   11  238   14  51.1 -99.9 1000.5 -9.9 -9.999 -99.9 -99.99 -9.99
2018/01/13 03:00 EST    1.65   1.74   12  240   15  51.3 -99.9 1000.6 -9.9 -9.999 -99.9 -99.99 -9.99
2018/01/13 03:06 EST    1.71   1.70    9  236   14  50.9 -99.9 1000.7 -9.9 -9.999 -99.9 -99.99 -9.99
2018/01/13 03:12 EST    1.77   1.76    9  233   13  50.7 -99.9 1000.8 -9.9 -9.999 -99.9 -99.99 -9.99
2018/01/13 03:18 EST    1.83   1.89    9  238   12  50.5 -99.9 1000.8 -9.9 -9.999 -99.9 -99.99 -9.99
2018/01/13 03:24 EST    1.89   1.88    9  237   13  50.9 -99.9 1000.8 -9.9 -9.999 -99.9 -99.99 -9.99
2018/01/13 03:30 EST    1.95   1.94    5  254   11  48.2 -99.9 1000.7 -9.9 -9.999 -99.9 -99.99 -9.99
2018/01/13 03:36 EST    2.00   1.99    8  233   11  49.5 -99.9 1000.8 -9.9 -9.999 -99.9 -99.99 -9.99
2018/01/13 03:42 EST    2.05   1.99    9  226   10  49.6 -99.9 1000.9 -9.9 -9.999 -99.9 -99.99 -9.99
2018/01/13 03:48 EST    2.10   2.03   10  234   13  50.7 -99.9 1001.0 -9.9 -9.999 -99.9 -99.99 -9.99
2018/01/13 03:54 EST    2.15   2.11   11  237   15  51.4 -99.9 1001.1 -9.9 -9.999 -99.9 -99.99 -9.99
2018/01/13 04:00 EST    2.20   2.21   13  241   16  51.1 -99.9 1001.0 -9.9 -9.999 -99.9 -99.99 -9.99
2018/01/13 04:06 EST    2.24   2.29   17  242   20  52.0 -99.9 1001.0 -9.9 -9.999 -99.9 -99.99 -9.99
2018/01/13 04:12 EST    2.28   2.29   14  240   17  51.3 -99.9 1001.2 -9.9 -9.999 -99.9 -99.99 -9.99
2018/01/13 04:18 EST    2.32   2.36   13  237   19  51.6 -99.9 1001.3 -9.9 -9.999 -99.9 -99.99 -9.99
2018/01/13 04:24 EST    2.36   2.38   12  238   18  50.5 -99.9 1001.5 -9.9 -9.999 -99.9 -99.99 -9.99
2018/01/13 04:30 EST    2.39   2.52   14  244   17  50.0 -99.9 1001.7 -9.9 -9.999 -99.9 -99.99 -9.99
2018/01/13 04:36 EST    2.42   2.54   12  241   15  49.8 -99.9 1001.9 -9.9 -9.999 -99.9 -99.99 -9.99
2018/01/13 04:42 EST    2.45   2.53   11  238   15  50.5 -99.9 1002.0 -9.9 -9.999 -99.9 -99.99 -9.99
2018/01/13 04:48 EST    2.48   2.55   10  237   14  50.2 -99.9 1002.1 -9.9 -9.999 -99.9 -99.99 -9.99
2018/01/13 04:54 EST    2.50   2.61   11  235   14  50.7 -99.9 1002.4 -9.9 -9.999 -99.9 -99.99 -9.99
2018/01/13 05:00 EST    2.52   2.56   12  232   15  50.9 -99.9 1002.5 -9.9 -9.999 -99.9 -99.99 -9.99
2018/01/13 05:06 EST    2.54   2.58   13  230   15  51.6 -99.9 1002.4 -9.9 -9.999 -99.9 -99.99 -9.99
2018/01/13 05:12 EST    2.56   2.55   14  228   17  51.8 -99.9 1002.6 -9.9 -9.999 -99.9 -99.99 -9.99
2018/01/13 05:18 EST    2.58   2.71   15  228   19  52.3 -99.9 1002.6 -9.9 -9.999 -99.9 -99.99 -9.99
2018/01/13 05:24 EST    2.59   2.61   15  228   18  51.8 -99.9 1002.8 -9.9 -9.999 -99.9 -99.99 -9.99
2018/01/13 05:30 EST    2.60   2.51   15  227   18  51.8 -99.9 1003.0 -9.9 -9.999 -99.9 -99.99 -9.99
2018/01/13 05:36 EST    2.60   2.48   13  229   16  51.6 -99.9 1003.3 -9.9 -9.999 -99.9 -99.99 -9.99
2018/01/13 05:42 EST    2.61   2.47   14  230   16  52.0 -99.9 1003.5 -9.9 -9.999 -99.9 -99.99 -9.99
2018/01/13 05:48 EST    2.61   2.35   14  234   18  51.6 -99.9 1003.8 -9.9 -9.999 -99.9 -99.99 -9.99
2018/01/13 05:54 EST    2.61   2.38   13  230   16  52.2 -99.9 1003.9 -9.9 -9.999 -99.9 -99.99 -9.99
2018/01/13 06:00 EST    2.61   2.37   12  229   16  52.2 -99.9 1003.9 -9.9 -9.999 -99.9 -99.99 -9.99
2018/01/13 06:06 EST    2.60   2.37   12  230   16  52.2 -99.9 1004.1 -9.9 -9.999 -99.9 -99.99 -9.99
2018/01/13 06:12 EST    2.59   2.41   11  229   14  51.4 -99.9 1004.3 -9.9 -9.999 -99.9 -99.99 -9.99
2018/01/13 06:18 EST    2.58   2.37   12  225   16  51.1 -99.9 1004.4 -9.9 -9.999 -99.9 -99.99 -9.99
2018/01/13 06:24 EST    2.56   2.41   13  226   17  51.8 -99.9 1004.5 -9.9 -9.999 -99.9 -99.99 -9.99
2018/01/13 06:30 EST    2.55   2.34   14  225   16  51.1 -99.9 1004.6 -9.9 -9.999 -99.9 -99.99 -9.99
2018/01/13 06:36 EST    2.53   2.34   13  228   17  51.6 -99.9 1004.7 -9.9 -9.999 -99.9 -99.99 -9.99
2018/01/13 06:42 EST    2.50   2.40   12  229   19  51.4 -99.9 1004.9 -9.9 -9.999 -99.9 -99.99 -9.99
2018/01/13 06:48 EST    2.48   2.30   11  231   15  51.1 -99.9 1005.1 -9.9 -9.999 -99.9 -99.99 -9.99
2018/01/13 06:54 EST    2.45   2.30   11  231   13  51.3 -99.9 1005.1 -9.9 -9.999 -99.9 -99.99 -9.99
2018/01/13 07:00 EST    2.42   2.26   11  235   13  51.1 -99.9 1005.2 -9.9 -9.999 -99.9 -99.99 -9.99
2018/01/13 07:06 EST    2.38   2.25   10  234   13  50.7 -99.9 1005.3 -9.9 -9.999 -99.9 -99.99 -9.99
2018/01/13 07:12 EST    2.34   2.27   10  232   12  50.5 -99.9 1005.4 -9.9 -9.999 -99.9 -99.99 -9.99
2018/01/13 07:18 EST    2.30   2.22   10  232   12  50.4 -99.9 1005.6 -9.9 -9.999 -99.9 -99.99 -9.99
2018/01/13 07:24 EST    2.26   2.15   10  239   14  50.2 -99.9 1005.7 -9.9 -9.999 -99.9 -99.99 -9.99
2018/01/13 07:30 EST    2.21   2.09    9  236   12  50.2 -99.9 1005.9 -9.9 -9.999 -99.9 -99.99 -9.99
2018/01/13 07:36 EST    2.16   2.13   10  236   12  51.3 -99.9 1006.0 -9.9 -9.999 -99.9 -99.99 -9.99
2018/01/13 07:42 EST    2.11   2.03   10  235   12  51.4 -99.9 1006.1 -9.9 -9.999 -99.9 -99.99 -9.99
2018/01/13 07:48 EST    2.06   2.00   10  240   13  51.4 -99.9 1006.2 -9.9 -9.999 -99.9 -99.99 -9.99
2018/01/13 07:54 EST    2.00   1.96   13  243   14  51.3 -99.9 1006.2 -9.9 -9.999 -99.9 -99.99 -9.99
2018/01/13 08:00 EST    1.95   1.89   13  243   15  51.4 -99.9 1006.4 -9.9 -9.999 -99.9 -99.99 -9.99
2018/01/13 08:06 EST    1.89   1.82   13  244   15  51.8 -99.9 1006.7 -9.9 -9.999 -99.9 -99.99 -9.99
2018/01/13 08:12 EST    1.83   1.80   12  247   14  51.6 -99.9 1006.8 -9.9 -9.999 -99.9 -99.99 -9.99
2018/01/13 08:18 EST    1.76   1.72   12  250   13  51.6 -99.9 1007.0 -9.9 -9.999 -99.9 -99.99 -9.99
2018/01/13 08:24 EST    1.70   1.68   12  251   13  51.4 -99.9 1007.3 -9.9 -9.999 -99.9 -99.99 -9.99
2018/01/13 08:30 EST    1.64   1.65   10  253   11  50.5 -99.9 1007.5 -9.9 -9.999 -99.9 -99.99 -9.99
2018/01/13 08:36 EST    1.57   1.65   10  257   11  50.5 -99.9 1007.7 -9.9 -9.999 -99.9 -99.99 -9.99
2018/01/13 08:42 EST    1.51   1.59   11  258   12  50.5 -99.9 1007.9 -9.9 -9.999 -99.9 -99.99 -9.99
2018/01/13 08:48 EST    1.44   1.56   11  260   12  50.7 -99.9 1008.2 -9.9 -9.999 -99.9 -99.99 -9.99
2018/01/13 08:54 EST    1.38   1.63   21    4   25  44.2 -99.9 1009.3 -9.9 -9.999 -99.9 -99.99 -9.99
2018/01/13 09:00 EST    1.31   1.64   24   11   30  42.3 -99.9 1009.4 -9.9 -9.999 -99.9 -99.99 -9.99
2018/01/13 09:06 EST    1.25   1.57   22   14   24  41.4 -99.9 1009.7 -9.9 -9.999 -99.9 -99.99 -9.99
2018/01/13 09:12 EST    1.19   1.45   18   15   24  41.0 -99.9 1010.1 -9.9 -9.999 -99.9 -99.99 -9.99
2018/01/13 09:18 EST    1.12   1.36   20   11   23  40.8 -99.9 1010.3 -9.9 -9.999 -99.9 -99.99 -9.99
2018/01/13 09:24 EST    1.06   1.33   20    6   23  40.8 -99.9 1010.5 -9.9 -9.999 -99.9 -99.99 -9.99
2018/01/13 09:30 EST    1.00   1.29   18    5   23  40.5 -99.9 1010.9 -9.9 -9.999 -99.9 -99.99 -9.99
2018/01/13 09:36 EST    0.94   1.33   19    3   21  40.3 -99.9 1010.9 -9.9 -9.999 -99.9 -99.99 -9.99
2018/01/13 09:42 EST    0.88   1.33   17    4   21  39.9 -99.9 1011.2 -9.9 -9.999 -99.9 -99.99 -9.99
2018/01/13 09:48 EST    0.82   1.18   18    3   20  39.7 -99.9 1011.3 -9.9 -9.999 -99.9 -99.99 -9.99
2018/01/13 09:54 EST    0.77   1.14   18  359   23  39.6 -99.9 1011.4 -9.9 -9.999 -99.9 -99.99 -9.99
2018/01/13 10:00 EST    0.71   1.02   20  354   24  39.6 -99.9 1011.6 -9.9 -9.999 -99.9 -99.99 -9.99
2018/01/13 10:06 EST    0.66   0.99   19  350   23  39.4 -99.9 1011.8 -9.9 -9.999 -99.9 -99.99 -9.99
2018/01/13 10:12 EST    0.61   0.93   19  347   22  39.2 -99.9 1012.1 -9.9 -9.999 -99.9 -99.99 -9.99
2018/01/13 10:18 EST    0.56   0.83   18  347   22  39.2 -99.9 1012.3 -9.9 -9.999 -99.9 -99.99 -9.99
2018/01/13 10:24 EST    0.52   0.81   20  343   22  39.2 -99.9 1012.4 -9.9 -9.999 -99.9 -99.99 -9.99
2018/01/13 10:30 EST    0.47   0.75   18  343   21  39.0 -99.9 1012.4 -9.9 -9.999 -99.9 -99.99 -9.99
2018/01/13 10:36 EST    0.43   0.71   18  339   21  38.8 -99.9 1012.6 -9.9 -9.999 -99.9 -99.99 -9.99
2018/01/13 10:42 EST    0.39   0.59   17  340   21  38.8 -99.9 1012.8 -9.9 -9.999 -99.9 -99.99 -9.99
2018/01/13 10:48 EST    0.35   0.68   17  340   19  38.8 -99.9 1013.0 -9.9 -9.999 -99.9 -99.99 -9.99
2018/01/13 10:54 EST    0.31   0.56   17  341   20  38.7 -99.9 1013.1 -9.9 -9.999 -99.9 -99.99 -9.99
2018/01/13 11:00 EST    0.28   0.44   17  338   19  38.7 -99.9 1013.3 -9.9 -9.999 -99.9 -99.99 -9.99
2018/01/13 11:06 EST    0.25   0.46   15  340   18  38.5 -99.9 1013.5 -9.9 -9.999 -99.9 -99.99 -9.99
2018/01/13 11:12 EST    0.22   0.41   16  338   18  38.3 -99.9 1013.7 -9.9 -9.999 -99.9 -99.99 -9.99
2018/01/13 11:18 EST    0.20   0.46   16  339   17  38.3 -99.9 1013.7 -9.9 -9.999 -99.9 -99.99 -9.99
2018/01/13 11:24 EST    0.17   0.35   14  332   16  37.9 -99.9 1013.8 -9.9 -9.999 -99.9 -99.99 -9.99
2018/01/13 11:30 EST    0.15   0.44   17  331   18  37.4 -99.9 1013.8 -9.9 -9.999 -99.9 -99.99 -9.99
2018/01/13 11:36 EST    0.13   0.39   17  332   20  37.2 -99.9 1013.8 -9.9 -9.999 -99.9 -99.99 -9.99
2018/01/13 11:42 EST    0.12   0.31   17  333   20  37.0 -99.9 1013.9 -9.9 -9.999 -99.9 -99.99 -9.99
2018/01/13 11:48 EST    0.11   0.30   17  332   19  36.9 -99.9 1013.9 -9.9 -9.999 -99.9 -99.99 -9.99
2018/01/13 11:54 EST    0.10   0.34   18  334   21  36.7 -99.9 1014.0 -9.9 -9.999 -99.9 -99.99 -9.99
2018/01/13 12:00 EST    0.09   0.33   18  337   20  36.5 -99.9 1014.0 -9.9 -9.999 -99.9 -99.99 -9.99
2018/01/13 12:06 EST    0.09   0.26   17  338   21  36.3 -99.9 1014.1 -9.9 -9.999 -99.9 -99.99 -9.99
2018/01/13 12:12 EST    0.09   0.27   18  334   20  36.1 -99.9 1014.2 -9.9 -9.999 -99.9 -99.99 -9.99
2018/01/13 12:18 EST    0.09   0.30   17  332   21  36.1 -99.9 1014.4 -9.9 -9.999 -99.9 -99.99 -9.99
2018/01/13 12:24 EST    0.10   0.21   19  334   21  36.1 -99.9 1014.5 -9.9 -9.999 -99.9 -99.99 -9.99
2018/01/13 12:30 EST    0.10   0.24   17  333   20  36.1 -99.9 1014.6 -9.9 -9.999 -99.9 -99.99 -9.99
2018/01/13 12:36 EST    0.11   0.24   17  332   20  36.0 -99.9 1014.6 -9.9 -9.999 -99.9 -99.99 -9.99
2018/01/13 12:42 EST    0.13   0.29   17  330   19  36.1 -99.9 1014.7 -9.9 -9.999 -99.9 -99.99 -9.99
2018/01/13 12:48 EST    0.15   0.25   16  333   18  36.1 -99.9 1014.9 -9.9 -9.999 -99.9 -99.99 -9.99
2018/01/13 12:54 EST    0.17   0.26   14  343   17  36.5 -99.9 1015.0 -9.9 -9.999 -99.9 -99.99 -9.99
2018/01/13 13:00 EST    0.19   0.24   17  347   19  36.3 -99.9 1015.0 -9.9 -9.999 -99.9 -99.99 -9.99
2018/01/13 13:06 EST    0.21   0.33   18  356   20  36.5 -99.9 1015.0 -9.9 -9.999 -99.9 -99.99 -9.99
2018/01/13 13:12 EST    0.24   0.33   17    6   19  36.5 -99.9 1015.2 -9.9 -9.999 -99.9 -99.99 -9.99
2018/01/13 13:18 EST    0.27   0.34   17    6   19  36.3 -99.9 1015.2 -9.9 -9.999 -99.9 -99.99 -9.99
2018/01/13 13:24 EST    0.30   0.36   18    9   20  36.3 -99.9 1015.3 -9.9 -9.999 -99.9 -99.99 -9.99
2018/01/13 13:30 EST    0.34   0.38   17    3   20  36.3 -99.9 1015.4 -9.9 -9.999 -99.9 -99.99 -9.99
2018/01/13 13:36 EST    0.37   0.36   17    4   19  36.3 -99.9 1015.6 -9.9 -9.999 -99.9 -99.99 -9.99
2018/01/13 13:42 EST    0.41   0.39   18  358   20  36.3 -99.9 1015.6 -9.9 -9.999 -99.9 -99.99 -9.99
2018/01/13 13:48 EST    0.45   0.43   19    4   21  36.3 -99.9 1015.6 -9.9 -9.999 -99.9 -99.99 -9.99
2018/01/13 13:54 EST    0.50   0.45 -999 -999 -999 -99.9 -99.9 -999.9 -9.9 -9.999 -99.9 -99.99 -9.99
2018/01/13 14:00 EST    0.54   0.48   20    8   22  36.1 -99.9 1015.7 -9.9 -9.999 -99.9 -99.99 -9.99
2018/01/13 14:06 EST    0.58   0.48   18    3   21  36.0 -99.9 1015.8 -9.9 -9.999 -99.9 -99.99 -9.99
2018/01/13 14:12 EST    0.63   0.63   17    4   20  36.0 -99.9 1015.9 -9.9 -9.999 -99.9 -99.99 -9.99
2018/01/13 14:18 EST    0.68   0.52   20    3   21  36.0 -99.9 1016.2 -9.9 -9.999 -99.9 -99.99 -9.99
2018/01/13 14:24 EST    0.73   0.69   18    7   21  36.0 -99.9 1016.4 -9.9 -9.999 -99.9 -99.99 -9.99
2018/01/13 14:30 EST    0.78   0.76   19    4   21  36.0 -99.9 1016.6 -9.9 -9.999 -99.9 -99.99 -9.99
2018/01/13 14:36 EST    0.83   0.75   18    3   21  36.1 -99.9 1016.8 -9.9 -9.999 -99.9 -99.99 -9.99
2018/01/13 14:42 EST    0.88   0.83   18    6   21  36.1 -99.9 1016.9 -9.9 -9.999 -99.9 -99.99 -9.99
2018/01/13 14:48 EST    0.94   0.92   17    3   21  36.1 -99.9 1017.2 -9.9 -9.999 -99.9 -99.99 -9.99
2018/01/13 14:54 EST    0.99   0.95   19    4   20  36.1 -99.9 1017.4 -9.9 -9.999 -99.9 -99.99 -9.99
2018/01/13 15:00 EST    1.04   1.05   17    2   20  36.0 -99.9 1017.6 -9.9 -9.999 -99.9 -99.99 -9.99
2018/01/13 15:06 EST    1.10   1.09   17    7   20  36.0 -99.9 1017.7 -9.9 -9.999 -99.9 -99.99 -9.99
2018/01/13 15:12 EST    1.15   1.08   18    6   20  35.8 -99.9 1017.8 -9.9 -9.999 -99.9 -99.99 -9.99
2018/01/13 15:18 EST    1.20   1.20   19    3   22  35.8 -99.9 1018.0 -9.9 -9.999 -99.9 -99.99 -9.99
2018/01/13 15:24 EST    1.25   1.19   17    6   20  36.0 -99.9 1018.3 -9.9 -9.999 -99.9 -99.99 -9.99
2018/01/13 15:30 EST    1.30   1.34   17    8   18  35.2 -99.9 1018.4 -9.9 -9.999 -99.9 -99.99 -9.99
2018/01/13 15:36 EST    1.35   1.37   14   10   18  35.6 -99.9 1018.6 -9.9 -9.999 -99.9 -99.99 -9.99
2018/01/13 15:42 EST    1.40   1.54   15    4   17  35.6 -99.9 1018.7 -9.9 -9.999 -99.9 -99.99 -9.99
2018/01/13 15:48 EST    1.45   1.55   16    7   18  35.6 -99.9 1018.9 -9.9 -9.999 -99.9 -99.99 -9.99
2018/01/13 15:54 EST    1.50   1.71   16    6   18  35.8 -99.9 1019.0 -9.9 -9.999 -99.9 -99.99 -9.99
2018/01/13 16:00 EST    1.54   1.69   16  346   19  35.8 -99.9 1019.2 -9.9 -9.999 -99.9 -99.99 -9.99
2018/01/13 16:06 EST    1.59   1.79   20  334   23  35.8 -99.9 1019.2 -9.9 -9.999 -99.9 -99.99 -9.99
2018/01/13 16:12 EST    1.63   1.82   21  335   24  35.6 -99.9 1019.3 -9.9 -9.999 -99.9 -99.99 -9.99
2018/01/13 16:18 EST    1.67   1.99   23  336   25  35.4 -99.9 1019.3 -9.9 -9.999 -99.9 -99.99 -9.99
2018/01/13 16:24 EST    1.71   2.05   22  331   25  35.2 -99.9 1019.6 -9.9 -9.999 -99.9 -99.99 -9.99
2018/01/13 16:30 EST    1.74   2.19   19  338   23  35.4 -99.9 1019.9 -9.9 -9.999 -99.9 -99.99 -9.99
2018/01/13 16:36 EST    1.78   2.14   20  336   22  35.2 -99.9 1020.1 -9.9 -9.999 -99.9 -99.99 -9.99
2018/01/13 16:42 EST    1.81   2.18   18  337   22  35.2 -99.9 1020.2 -9.9 -9.999 -99.9 -99.99 -9.99
2018/01/13 16:48 EST    1.84   2.26   19  340   22  35.2 -99.9 1020.4 -9.9 -9.999 -99.9 -99.99 -9.99
2018/01/13 16:54 EST    1.87   2.30   19  346   22  35.2 -99.9 1020.4 -9.9 -9.999 -99.9 -99.99 -9.99
2018/01/13 17:00 EST    1.89   2.33   20  342   22  35.2 -99.9 1020.5 -9.9 -9.999 -99.9 -99.99 -9.99
2018/01/13 17:06 EST    1.91   2.50   19  339   21  35.2 -99.9 1020.6 -9.9 -9.999 -99.9 -99.99 -9.99
2018/01/13 17:12 EST    1.93   2.42   19  344   21  35.2 -99.9 1020.7 -9.9 -9.999 -99.9 -99.99 -9.99
2018/01/13 17:18 EST    1.95   2.45   19  341   21  35.2 -99.9 1020.9 -9.9 -9.999 -99.9 -99.99 -9.99
2018/01/13 17:24 EST    1.97   2.40   19  339   21  35.2 -99.9 1021.0 -9.9 -9.999 -99.9 -99.99 -9.99
2018/01/13 17:30 EST    1.98   2.44   17  345   21  35.2 -99.9 1021.2 -9.9 -9.999 -99.9 -99.99 -9.99
2018/01/13 17:36 EST    2.00   2.42   17  348   21  35.2 -99.9 1021.2 -9.9 -9.999 -99.9 -99.99 -9.99
2018/01/13 17:42 EST    2.01   2.48   17  345   22  35.2 -99.9 1021.4 -9.9 -9.999 -99.9 -99.99 -9.99
2018/01/13 17:48 EST    2.01   2.46   16  349   21  35.4 -99.9 1021.5 -9.9 -9.999 -99.9 -99.99 -9.99
2018/01/13 17:54 EST    2.02   2.47   17  345   19  35.4 -99.9 1021.7 -9.9 -9.999 -99.9 -99.99 -9.99
2018/01/13 18:00 EST    2.02   2.44   18  342   20  35.4 -99.9 1021.8 -9.9 -9.999 -99.9 -99.99 -9.99
2018/01/13 18:06 EST    2.02   2.38   18  339   22  35.4 -99.9 1022.0 -9.9 -9.999 -99.9 -99.99 -9.99
2018/01/13 18:12 EST    2.02   2.30   17  348   21  35.4 -99.9 1022.2 -9.9 -9.999 -99.9 -99.99 -9.99
2018/01/13 18:18 EST    2.02   2.34   17  343   20  35.2 -99.9 1022.3 -9.9 -9.999 -99.9 -99.99 -9.99
2018/01/13 18:24 EST    2.01   2.22   17  351   20  35.2 -99.9 1022.5 -9.9 -9.999 -99.9 -99.99 -9.99
2018/01/13 18:30 EST    2.00   2.13   17  354   20  35.4 -99.9 1022.5 -9.9 -9.999 -99.9 -99.99 -9.99
2018/01/13 18:36 EST    1.99   2.24   19  355   21  35.4 -99.9 1022.6 -9.9 -9.999 -99.9 -99.99 -9.99
2018/01/13 18:42 EST    1.98   2.22   18    2   21  35.4 -99.9 1022.8 -9.9 -9.999 -99.9 -99.99 -9.99
2018/01/13 18:48 EST    1.96   2.12   18    3   22  35.4 -99.9 1022.9 -9.9 -9.999 -99.9 -99.99 -9.99
2018/01/13 18:54 EST    1.95   2.03   20  357   23  35.4 -99.9 1023.0 -9.9 -9.999 -99.9 -99.99 -9.99
2018/01/13 19:00 EST    1.93   2.09   20  358   22  35.2 -99.9 1023.1 -9.9 -9.999 -99.9 -99.99 -9.99
2018/01/13 19:06 EST    1.90   1.97   19    2   21  35.2 -99.9 1023.3 -9.9 -9.999 -99.9 -99.99 -9.99
2018/01/13 19:12 EST    1.88   1.96   19  347   22  35.2 -99.9 1023.4 -9.9 -9.999 -99.9 -99.99 -9.99
2018/01/13 19:18 EST    1.85   1.95   20  360   23  35.1 -99.9 1023.4 -9.9 -9.999 -99.9 -99.99 -9.99
2018/01/13 19:24 EST    1.82   1.86   20    7   22  35.1 -99.9 1023.5 -9.9 -9.999 -99.9 -99.99 -9.99
2018/01/13 19:30 EST    1.79   1.96   18  351   21  35.1 -99.9 1023.6 -9.9 -9.999 -99.9 -99.99 -9.99
2018/01/13 19:36 EST    1.75   1.95   19  358   21  35.1 -99.9 1023.7 -9.9 -9.999 -99.9 -99.99 -9.99
2018/01/13 19:42 EST    1.71   1.87   18    4   21  35.1 -99.9 1023.8 -9.9 -9.999 -99.9 -99.99 -9.99
2018/01/13 19:48 EST    1.67   1.83   21    7   23  35.1 -99.9 1023.8 -9.9 -9.999 -99.9 -99.99 -9.99
2018/01/13 19:54 EST    1.63   1.79   20    5   24  34.9 -99.9 1024.0 -9.9 -9.999 -99.9 -99.99 -9.99
2018/01/13 20:00 EST    1.59   1.90   19    3   22  34.9 -99.9 1024.2 -9.9 -9.999 -99.9 -99.99 -9.99
2018/01/13 20:06 EST    1.54   1.76   20    5   23  34.7 -99.9 1024.3 -9.9 -9.999 -99.9 -99.99 -9.99
2018/01/13 20:12 EST    1.49   1.83   20    3   24  34.7 -99.9 1024.4 -9.9 -9.999 -99.9 -99.99 -9.99
2018/01/13 20:18 EST    1.44   1.69   20    6   24  34.5 -99.9 1024.6 -9.9 -9.999 -99.9 -99.99 -9.99
2018/01/13 20:24 EST    1.39   1.71   20    4   23  34.3 -99.9 1024.7 -9.9 -9.999 -99.9 -99.99 -9.99
2018/01/13 20:30 EST    1.34   1.74   21    3   24  34.2 -99.9 1024.7 -9.9 -9.999 -99.9 -99.99 -9.99
2018/01/13 20:36 EST    1.28   1.70   20   11   24  34.3 -99.9 1024.9 -9.9 -9.999 -99.9 -99.99 -9.99
2018/01/13 20:42 EST    1.23   1.68   19    7   24  34.2 -99.9 1025.1 -9.9 -9.999 -99.9 -99.99 -9.99
2018/01/13 20:48 EST    1.17   1.54   19    9   22  34.0 -99.9 1025.3 -9.9 -9.999 -99.9 -99.99 -9.99
2018/01/13 20:54 EST    1.12   1.62   20    5   24  33.6 -99.9 1025.5 -9.9 -9.999 -99.9 -99.99 -9.99
2018/01/13 21:00 EST    1.06   1.57   21    2   23  33.4 -99.9 1025.6 -9.9 -9.999 -99.9 -99.99 -9.99
2018/01/13 21:06 EST    1.00   1.41   19    3   23  33.3 -99.9 1025.8 -9.9 -9.999 -99.9 -99.99 -9.99
2018/01/13 21:12 EST    0.95   1.47   19    4   23  33.1 -99.9 1025.9 -9.9 -9.999 -99.9 -99.99 -9.99
2018/01/13 21:18 EST    0.89   1.35   20    4   24  33.1 -99.9 1026.0 -9.9 -9.999 -99.9 -99.99 -9.99
2018/01/13 21:24 EST    0.84   1.27   21    6   24  32.9 -99.9 1026.1 -9.9 -9.999 -99.9 -99.99 -9.99
2018/01/13 21:30 EST    0.78   1.17   21    5   24  32.9 -99.9 1026.2 -9.9 -9.999 -99.9 -99.99 -9.99
2018/01/13 21:36 EST    0.73   1.23   19    1   24  32.9 -99.9 1026.4 -9.9 -9.999 -99.9 -99.99 -9.99
2018/01/13 21:42 EST    0.68   1.13   21    4   26  32.7 -99.9 1026.7 -9.9 -9.999 -99.9 -99.99 -9.99
2018/01/13 21:48 EST    0.63   1.12   22  357   24  32.5 -99.9 1026.7 -9.9 -9.999 -99.9 -99.99 -9.99
2018/01/13 21:54 EST    0.58   1.17   22    8   26  32.4 -99.9 1026.9 -9.9 -9.999 -99.9 -99.99 -9.99
2018/01/13 22:00 EST    0.53   1.06   22  359   25  32.2 -99.9 1027.1 -9.9 -9.999 -99.9 -99.99 -9.99
2018/01/13 22:06 EST    0.48   0.86   22    5   24  32.0 -99.9 1027.2 -9.9 -9.999 -99.9 -99.99 -9.99
2018/01/13 22:12 EST    0.43   0.87   22  353   25  31.8 -99.9 1027.3 -9.9 -9.999 -99.9 -99.99 -9.99
2018/01/13 22:18 EST    0.39   0.84   21  351   26  31.6 -99.9 1027.5 -9.9 -9.999 -99.9 -99.99 -9.99
2018/01/13 22:24 EST    0.35   0.84   20  358   24  31.8 -99.9 1027.6 -9.9 -9.999 -99.9 -99.99 -9.99
2018/01/13 22:30 EST    0.31   0.73   21    2   25  31.6 -99.9 1027.6 -9.9 -9.999 -99.9 -99.99 -9.99
2018/01/13 22:36 EST    0.27   0.78   23  353   26  31.3 -99.9 1027.7 -9.9 -9.999 -99.9 -99.99 -9.99
2018/01/13 22:42 EST    0.24   0.78   23  357   28  31.3 -99.9 1027.6 -9.9 -9.999 -99.9 -99.99 -9.99
2018/01/13 22:48 EST    0.20   0.58   21    2   24  31.1 -99.9 1027.8 -9.9 -9.999 -99.9 -99.99 -9.99
2018/01/13 22:54 EST    0.17   0.62   21  352   25  30.9 -99.9 1028.0 -9.9 -9.999 -99.9 -99.99 -9.99
2018/01/13 23:00 EST    0.14   0.65   21  348   25  30.9 -99.9 1028.1 -9.9 -9.999 -99.9 -99.99 -9.99
2018/01/13 23:06 EST    0.11   0.61   20  357   24  30.6 -99.9 1028.2 -9.9 -9.999 -99.9 -99.99 -9.99
2018/01/13 23:12 EST    0.09   0.66   21  348   25  30.4 -99.9 1028.3 -9.9 -9.999 -99.9 -99.99 -9.99
2018/01/13 23:18 EST    0.07   0.54   22  350   25  30.2 -99.9 1028.4 -9.9 -9.999 -99.9 -99.99 -9.99
2018/01/13 23:24 EST    0.05   0.52   22  350   24  30.2 -99.9 1028.4 -9.9 -9.999 -99.9 -99.99 -9.99
2018/01/13 23:30 EST    0.03   0.47   23  351   27  30.0 -99.9 1028.3 -9.9 -9.999 -99.9 -99.99 -9.99
2018/01/13 23:36 EST    0.02   0.32   21  347   25  30.0 -99.9 1028.5 -9.9 -9.999 -99.9 -99.99 -9.99
2018/01/13 23:42 EST    0.01   0.40   23  351   26  29.7 -99.9 1028.5 -9.9 -9.999 -99.9 -99.99 -9.99
2018/01/13 23:48 EST    0.00   0.50   23  348   27  29.7 -99.9 1028.5 -9.9 -9.999 -99.9 -99.99 -9.99
2018/01/13 23:54 EST   -0.00   0.51   21  354   27  29.7 -99.9 1028.7 -9.9 -9.999 -99.9 -99.99 -9.99
2018/01/14 00:00 EST   -0.00   0.33   23    3   28  29.5 -99.9 1028.7 -9.9 -9.999 -99.9 -99.99 -9.99
2018/01/14 00:06 EST   -0.00   0.43   21    0   27  29.7 -99.9 1028.7 -9.9 -9.999 -99.9 -99.99 -9.99
2018/01/14 00:12 EST    0.00   0.34   22  360   27  29.3 -99.9 1028.7 -9.9 -9.999 -99.9 -99.99 -9.99
2018/01/14 00:18 EST    0.01   0.41   20    3   27  29.5 -99.9 1028.9 -9.9 -9.999 -99.9 -99.99 -9.99
2018/01/14 00:24 EST    0.02   0.45   22  360   25  29.1 -99.9 1029.0 -9.9 -9.999 -99.9 -99.99 -9.99
2018/01/14 00:30 EST    0.03   0.46   22  350   24  28.9 -99.9 1029.0 -9.9 -9.999 -99.9 -99.99 -9.99
2018/01/14 00:36 EST    0.05   0.37   22  354   24  28.8 -99.9 1029.0 -9.9 -9.999 -99.9 -99.99 -9.99
2018/01/14 00:42 EST    0.07   0.48   20  353   26  28.6 -99.9 1029.0 -9.9 -9.999 -99.9 -99.99 -9.99
2018/01/14 00:48 EST    0.09   0.52   22  346   27  28.6 -99.9 1029.0 -9.9 -9.999 -99.9 -99.99 -9.99
2018/01/14 00:54 EST    0.12   0.50   21    0   27  28.8 -99.9 1029.1 -9.9 -9.999 -99.9 -99.99 -9.99
2018/01/14 01:00 EST    0.15   0.52   24  348   27  28.2 -99.9 1029.1 -9.9 -9.999 -99.9 -99.99 -9.99
2018/01/14 01:06 EST    0.18   0.51   25  351   28  28.0 -99.9 1029.2 -9.9 -9.999 -99.9 -99.99 -9.99
2018/01/14 01:12 EST    0.21   0.47   23  350   26  28.2 -99.9 1029.2 -9.9 -9.999 -99.9 -99.99 -9.99
2018/01/14 01:18 EST    0.25   0.55   23  358   29  28.0 -99.9 1029.2 -9.9 -9.999 -99.9 -99.99 -9.99
2018/01/14 01:24 EST    0.29   0.59   24  355   27  27.9 -99.9 1029.2 -9.9 -9.999 -99.9 -99.99 -9.99
2018/01/14 01:30 EST    0.33   0.74   24  355   29  27.3 -99.9 1029.4 -9.9 -9.999 -99.9 -99.99 -9.99
2018/01/14 01:36 EST    0.38   0.68   22  357   27  27.5 -99.9 1029.6 -9.9 -9.999 -99.9 -99.99 -9.99
2018/01/14 01:42 EST    0.42   0.76   20  354   26  27.5 -99.9 1029.6 -9.9 -9.999 -99.9 -99.99 -9.99
2018/01/14 01:48 EST    0.47   0.84   22  351   26  27.3 -99.9 1029.7 -9.9 -9.999 -99.9 -99.99 -9.99
2018/01/14 01:54 EST    0.52   0.97   24  354   27  27.1 -99.9 1029.6 -9.9 -9.999 -99.9 -99.99 -9.99
2018/01/14 02:00 EST    0.58   0.91   22  360   25  27.3 -99.9 1029.6 -9.9 -9.999 -99.9 -99.99 -9.99
2018/01/14 02:06 EST    0.63   0.88   21    1   28  27.3 -99.9 1029.6 -9.9 -9.999 -99.9 -99.99 -9.99
2018/01/14 02:12 EST    0.69   0.95   24    3   26  27.0 -99.9 1029.6 -9.9 -9.999 -99.9 -99.99 -9.99
2018/01/14 02:18 EST    0.75   0.85   23    3   27  27.1 -99.9 1029.6 -9.9 -9.999 -99.9 -99.99 -9.99
2018/01/14 02:24 EST    0.81   1.05   23    6   29  27.0 -99.9 1029.7 -9.9 -9.999 -99.9 -99.99 -9.99
2018/01/14 02:30 EST    0.87   1.11   24    2   30  26.8 -99.9 1029.7 -9.9 -9.999 -99.9 -99.99 -9.99
2018/01/14 02:36 EST    0.93   1.17   24  354   28  26.8 -99.9 1029.7 -9.9 -9.999 -99.9 -99.99 -9.99
2018/01/14 02:42 EST    0.99   1.21   24    6   28  26.8 -99.9 1029.7 -9.9 -9.999 -99.9 -99.99 -9.99
2018/01/14 02:48 EST    1.06   1.38   25  359   30  26.6 -99.9 1029.8 -9.9 -9.999 -99.9 -99.99 -9.99
2018/01/14 02:54 EST    1.12   1.34   24    6   27  26.8 -99.9 1030.0 -9.9 -9.999 -99.9 -99.99 -9.99
2018/01/14 03:00 EST    1.19   1.40   22    7   28  26.4 -99.9 1030.0 -9.9 -9.999 -99.9 -99.99 -9.99
2018/01/14 03:06 EST    1.26   1.50   23    6   27  26.4 -99.9 1030.1 -9.9 -9.999 -99.9 -99.99 -9.99
2018/01/14 03:12 EST    1.32   1.79   24    6   27  26.4 -99.9 1030.3 -9.9 -9.999 -99.9 -99.99 -9.99
2018/01/14 03:18 EST    1.39   1.72   22  357   28  26.2 -99.9 1030.3 -9.9 -9.999 -99.9 -99.99 -9.99
2018/01/14 03:24 EST    1.46   1.78   22    6   28  26.2 -99.9 1030.5 -9.9 -9.999 -99.9 -99.99 -9.99
2018/01/14 03:30 EST    1.52   1.78   21    4   26  26.2 -99.9 1030.6 -9.9 -9.999 -99.9 -99.99 -9.99
2018/01/14 03:36 EST    1.59   1.97   23    4   29  26.1 -99.9 1030.6 -9.9 -9.999 -99.9 -99.99 -9.99
2018/01/14 03:42 EST    1.65   2.02   23    3   27  25.7 -99.9 1030.7 -9.9 -9.999 -99.9 -99.99 -9.99
2018/01/14 03:48 EST    1.72   2.03   21    3   27  26.2 -99.9 1030.8 -9.9 -9.999 -99.9 -99.99 -9.99
2018/01/14 03:54 EST    1.78   2.09   22    5   27  25.5 -99.9 1030.8 -9.9 -9.999 -99.9 -99.99 -9.99
2018/01/14 04:00 EST    1.84   2.14   23    7   28  25.5 -99.9 1030.9 -9.9 -9.999 -99.9 -99.99 -9.99
2018/01/14 04:06 EST    1.90   2.31   25    3   30  25.5 -99.9 1030.7 -9.9 -9.999 -99.9 -99.99 -9.99
2018/01/14 04:12 EST    1.96   2.31   22    4   28  25.5 -99.9 1030.7 -9.9 -9.999 -99.9 -99.99 -9.99
2018/01/14 04:18 EST    2.02   2.38   22    4   28  25.5 -99.9 1030.9 -9.9 -9.999 -99.9 -99.99 -9.99
2018/01/14 04:24 EST    2.08   2.51   23  360   27  25.5 -99.9 1030.9 -9.9 -9.999 -99.9 -99.99 -9.99
2018/01/14 04:30 EST    2.13   2.59   25    9   28  25.2 -99.9 1030.8 -9.9 -9.999 -99.9 -99.99 -9.99
2018/01/14 04:36 EST    2.18   2.54   22    6   29  25.3 -99.9 1031.0 -9.9 -9.999 -99.9 -99.99 -9.99
2018/01/14 04:42 EST    2.23   2.61   24   10   27  25.2 -99.9 1031.0 -9.9 -9.999 -99.9 -99.99 -9.99
2018/01/14 04:48 EST    2.28   2.65   21    5   27  25.3 -99.9 1031.0 -9.9 -9.999 -99.9 -99.99 -9.99
2018/01/14 04:54 EST    2.32   2.85   23    6   27  25.3 -99.9 1031.1 -9.9 -9.999 -99.9 -99.99 -9.99
2018/01/14 05:00 EST    2.36   2.88   23    4   29  25.2 -99.9 1031.1 -9.9 -9.999 -99.9 -99.99 -9.99
2018/01/14 05:06 EST    2.40   2.80   21  359   27  25.0 -99.9 1031.1 -9.9 -9.999 -99.9 -99.99 -9.99
2018/01/14 05:12 EST    2.44   2.72   23    8   28  24.8 -99.9 1031.2 -9.9 -9.999 -99.9 -99.99 -9.99
2018/01/14 05:18 EST    2.47   2.83   24    8   28  24.6 -99.9 1031.2 -9.9 -9.999 -99.9 -99.99 -9.99
2018/01/14 05:24 EST    2.50   2.99   24    6   28  24.8 -99.9 1031.3 -9.9 -9.999 -99.9 -99.99 -9.99
2018/01/14 05:30 EST    2.53   2.82   24    3   30  24.8 -99.9 1031.6 -9.9 -9.999 -99.9 -99.99 -9.99
2018/01/14 05:36 EST    2.55   3.07   22    4   29  25.0 -99.9 1031.6 -9.9 -9.999 -99.9 -99.99 -9.99
2018/01/14 05:42 EST    2.57   2.84   25    6   29  24.4 -99.9 1031.7 -9.9 -9.999 -99.9 -99.99 -9.99
2018/01/14 05:48 EST    2.59   2.99   24    7   30  24.4 -99.9 1031.9 -9.9 -9.999 -99.9 -99.99 -9.99
2018/01/14 05:54 EST    2.61   3.03   23  346   28  24.4 -99.9 1032.0 -9.9 -9.999 -99.9 -99.99 -9.99
2018/01/14 06:00 EST    2.63   2.95   24    4   28  24.1 -99.9 1032.2 -9.9 -9.999 -99.9 -99.99 -9.99
2018/01/14 06:06 EST    2.64   2.99   23    4   27  24.4 -99.9 1032.2 -9.9 -9.999 -99.9 -99.99 -9.99
2018/01/14 06:12 EST    2.65   3.08   24    7   28  24.1 -99.9 1032.4 -9.9 -9.999 -99.9 -99.99 -9.99
2018/01/14 06:18 EST    2.65   3.17   21    5   27  24.1 -99.9 1032.5 -9.9 -9.999 -99.9 -99.99 -9.99
2018/01/14 06:24 EST    2.65   3.05   22   11   26  24.4 -99.9 1032.5 -9.9 -9.999 -99.9 -99.99 -9.99
2018/01/14 06:30 EST    2.66   3.20   24    9   27  24.1 -99.9 1032.6 -9.9 -9.999 -99.9 -99.99 -9.99
2018/01/14 06:36 EST    2.65   2.92   20   14   28  24.1 -99.9 1032.8 -9.9 -9.999 -99.9 -99.99 -9.99
2018/01/14 06:42 EST    2.65   3.03   22    8   30  24.1 -99.9 1032.9 -9.9 -9.999 -99.9 -99.99 -9.99
2018/01/14 06:48 EST    2.64   2.96   23    3   27  24.1 -99.9 1033.0 -9.9 -9.999 -99.9 -99.99 -9.99
2018/01/14 06:54 EST    2.63   3.00   22    0   28  23.7 -99.9 1033.1 -9.9 -9.999 -99.9 -99.99 -9.99
2018/01/14 07:00 EST    2.62   3.02   23    5   28  23.9 -99.9 1033.2 -9.9 -9.999 -99.9 -99.99 -9.99
2018/01/14 07:06 EST    2.60   2.84   21    8   27  23.9 -99.9 1033.2 -9.9 -9.999 -99.9 -99.99 -9.99
2018/01/14 07:12 EST    2.58   2.95   22    4   27  23.9 -99.9 1033.4 -9.9 -9.999 -99.9 -99.99 -9.99
2018/01/14 07:18 EST    2.56   2.81   24    6   28  23.7 -99.9 1033.5 -9.9 -9.999 -99.9 -99.99 -9.99
2018/01/14 07:24 EST    2.54   3.01   20    5   26  24.4 -99.9 1033.6 -9.9 -9.999 -99.9 -99.99 -9.99
2018/01/14 07:30 EST    2.51   2.80   22    2   27  24.1 -99.9 1033.6 -9.9 -9.999 -99.9 -99.99 -9.99
2018/01/14 07:36 EST    2.48   2.90   22    2   27  24.1 -99.9 1033.7 -9.9 -9.999 -99.9 -99.99 -9.99
2018/01/14 07:42 EST    2.45   2.85   19    5   25  24.3 -99.9 1033.7 -9.9 -9.999 -99.9 -99.99 -9.99
2018/01/14 07:48 EST    2.41   2.71   19    4   27  24.4 -99.9 1033.8 -9.9 -9.999 -99.9 -99.99 -9.99
2018/01/14 07:54 EST    2.37   2.79   20    5   26  23.9 -99.9 1034.0 -9.9 -9.999 -99.9 -99.99 -9.99
2018/01/14 08:00 EST    2.33   2.68   23    1   26  23.7 -99.9 1034.1 -9.9 -9.999 -99.9 -99.99 -9.99
2018/01/14 08:06 EST    2.29   2.60   21    6   27  23.9 -99.9 1034.2 -9.9 -9.999 -99.9 -99.99 -9.99
2018/01/14 08:12 EST    2.24   2.55   21    1   26  24.3 -99.9 1034.3 -9.9 -9.999 -99.9 -99.99 -9.99
2018/01/14 08:18 EST    2.19   2.58   22    7   25  23.7 -99.9 1034.3 -9.9 -9.999 -99.9 -99.99 -9.99
2018/01/14 08:24 EST    2.14   2.60   21    7   28  24.1 -99.9 1034.4 -9.9 -9.999 -99.9 -99.99 -9.99
2018/01/14 08:30 EST    2.09   2.48   21    1   28  24.1 -99.9 1034.5 -9.9 -9.999 -99.9 -99.99 -9.99
2018/01/14 08:36 EST    2.03   2.45   23  360   26  23.9 -99.9 1034.5 -9.9 -9.999 -99.9 -99.99 -9.99
2018/01/14 08:42 EST    1.97   2.42   23    7   27  23.7 -99.9 1034.6 -9.9 -9.999 -99.9 -99.99 -9.99
2018/01/14 08:48 EST    1.91   2.46   21    5   24  24.3 -99.9 1034.5 -9.9 -9.999 -99.9 -99.99 -9.99
2018/01/14 08:54 EST    1.85   2.30   23    3   26  23.7 -99.9 1034.6 -9.9 -9.999 -99.9 -99.99 -9.99
2018/01/14 09:00 EST    1.79   2.29   23    3   28  24.3 -99.9 1034.6 -9.9 -9.999 -99.9 -99.99 -9.99
2018/01/14 09:06 EST    1.73   2.28   23    5   26  23.9 -99.9 1034.8 -9.9 -9.999 -99.9 -99.99 -9.99
2018/01/14 09:12 EST    1.66   2.08   23  358   26  23.9 -99.9 1034.8 -9.9 -9.999 -99.9 -99.99 -9.99
2018/01/14 09:18 EST    1.59   2.02   22    5   27  23.9 -99.9 1034.8 -9.9 -9.999 -99.9 -99.99 -9.99
2018/01/14 09:24 EST    1.53   2.04   21    3   27  23.7 -99.9 1035.1 -9.9 -9.999 -99.9 -99.99 -9.99
2018/01/14 09:30 EST    1.46   2.10   22    9   27  24.3 -99.9 1035.1 -9.9 -9.999 -99.9 -99.99 -9.99
2018/01/14 09:36 EST    1.39   1.81   23    9   27  24.1 -99.9 1035.1 -9.9 -9.999 -99.9 -99.99 -9.99
2018/01/14 09:42 EST    1.33   1.82   21   11   26  24.4 -99.9 1035.2 -9.9 -9.999 -99.9 -99.99 -9.99
2018/01/14 09:48 EST    1.26   1.77   22    8   25  24.1 -99.9 1035.3 -9.9 -9.999 -99.9 -99.99 -9.99
2018/01/14 09:54 EST    1.19   1.64   22    6   25  23.9 -99.9 1035.3 -9.9 -9.999 -99.9 -99.99 -9.99
2018/01/14 10:00 EST    1.13   1.70   22   12   25  24.3 -99.9 1035.2 -9.9 -9.999 -99.9 -99.99 -9.99
2018/01/14 10:06 EST    1.06   1.52   24    7   26  23.7 -99.9 1035.2 -9.9 -9.999 -99.9 -99.99 -9.99
2018/01/14 10:12 EST    1.00   1.57   22   13   28  24.3 -99.9 1035.3 -9.9 -9.999 -99.9 -99.99 -9.99
2018/01/14 10:18 EST    0.93   1.36   22    7   27  23.9 -99.9 1035.3 -9.9 -9.999 -99.9 -99.99 -9.99
2018/01/14 10:24 EST    0.87   1.48   22   12   26  23.5 -99.9 1035.4 -9.9 -9.999 -99.9 -99.99 -9.99
2018/01/14 10:30 EST    0.81   1.24   23   16   25  23.5 -99.9 1035.3 -9.9 -9.999 -99.9 -99.99 -9.99
2018/01/14 10:36 EST    0.75   1.45   23   14   25  23.7 -99.9 1035.4 -9.9 -9.999 -99.9 -99.99 -9.99
2018/01/14 10:42 EST    0.69   1.23   23    9   27  23.7 -99.9 1035.4 -9.9 -9.999 -99.9 -99.99 -9.99
2018/01/14 10:48 EST    0.64   1.12   21    7   26  23.7 -99.9 1035.4 -9.9 -9.999 -99.9 -99.99 -9.99
2018/01/14 10:54 EST    0.58   1.08   22    6   26  23.5 -99.9 1035.4 -9.9 -9.999 -99.9 -99.99 -9.99
2018/01/14 11:00 EST    0.53   0.98   20   11   26  24.3 -99.9 1035.3 -9.9 -9.999 -99.9 -99.99 -9.99
2018/01/14 11:06 EST    0.48   1.00   21   10   25  23.9 -99.9 1035.3 -9.9 -9.999 -99.9 -99.99 -9.99
2018/01/14 11:12 EST    0.43   0.71   23   13   26  23.7 -99.9 1035.3 -9.9 -9.999 -99.9 -99.99 -9.99
2018/01/14 11:18 EST    0.39   0.96   23   16   26  23.4 -99.9 1035.2 -9.9 -9.999 -99.9 -99.99 -9.99
2018/01/14 11:24 EST    0.35   0.78   20    9   24  23.9 -99.9 1035.2 -9.9 -9.999 -99.9 -99.99 -9.99
2018/01/14 11:30 EST    0.30   0.67   20    8   25  23.5 -99.9 1035.3 -9.9 -9.999 -99.9 -99.99 -9.99
2018/01/14 11:36 EST    0.27   0.82   19    5   24  24.1 -99.9 1035.2 -9.9 -9.999 -99.9 -99.99 -9.99
2018/01/14 11:42 EST    0.23   0.53   22    7   24  23.9 -99.9 1035.1 -9.9 -9.999 -99.9 -99.99 -9.99
2018/01/14 11:48 EST    0.20   0.43   21    8   24  23.9 -99.9 1035.0 -9.9 -9.999 -99.9 -99.99 -9.99
2018/01/14 11:54 EST    0.17   0.45   21   17   24  23.5 -99.9 1035.0 -9.9 -9.999 -99.9 -99.99 -9.99
2018/01/14 12:00 EST    0.14   0.40   20   17   24  23.7 -99.9 1034.9 -9.9 -9.999 -99.9 -99.99 -9.99
2018/01/14 12:06 EST    0.11   0.46   20   14   23  23.7 -99.9 1034.8 -9.9 -9.999 -99.9 -99.99 -9.99
2018/01/14 12:12 EST    0.09   0.36   20   11   23  23.4 -99.9 1034.8 -9.9 -9.999 -99.9 -99.99 -9.99
2018/01/14 12:18 EST    0.07   0.40   19   13   24  23.5 -99.9 1034.7 -9.9 -9.999 -99.9 -99.99 -9.99
2018/01/14 12:24 EST    0.06   0.29   21   13   24  23.5 -99.9 1034.7 -9.9 -9.999 -99.9 -99.99 -9.99
2018/01/14 12:30 EST    0.04   0.23   21    9   25  23.4 -99.9 1034.6 -9.9 -9.999 -99.9 -99.99 -9.99
2018/01/14 12:36 EST    0.03   0.26   21   13   24  23.5 -99.9 1034.6 -9.9 -9.999 -99.9 -99.99 -9.99
2018/01/14 12:42 EST    0.03   0.24   20   10   24  23.4 -99.9 1034.5 -9.9 -9.999 -99.9 -99.99 -9.99
2018/01/14 12:48 EST    0.02   0.21   21   11   24  23.5 -99.9 1034.4 -9.9 -9.999 -99.9 -99.99 -9.99
2018/01/14 12:54 EST    0.02   0.33   20   15   24  23.5 -99.9 1034.3 -9.9 -9.999 -99.9 -99.99 -9.99
2018/01/14 13:00 EST    0.03   0.22   20   20   23  23.4 -99.9 1034.3 -9.9 -9.999 -99.9 -99.99 -9.99
2018/01/14 13:06 EST    0.03   0.27   20   15   24  23.4 -99.9 1034.3 -9.9 -9.999 -99.9 -99.99 -9.99
2018/01/14 13:12 EST    0.04   0.23   19   12   22  23.5 -99.9 1034.2 -9.9 -9.999 -99.9 -99.99 -9.99
2018/01/14 13:18 EST    0.05   0.34   19   10   23  23.9 -99.9 1034.2 -9.9 -9.999 -99.9 -99.99 -9.99
2018/01/14 13:24 EST    0.07   0.24   19   13   24  23.7 -99.9 1034.1 -9.9 -9.999 -99.9 -99.99 -9.99
2018/01/14 13:30 EST    0.08   0.23   20    9   23  24.1 -99.9 1034.1 -9.9 -9.999 -99.9 -99.99 -9.99
2018/01/14 13:36 EST    0.11   0.21   19    5   24  23.9 -99.9 1034.1 -9.9 -9.999 -99.9 -99.99 -9.99
2018/01/14 13:42 EST    0.13   0.28   19   11   23  24.1 -99.9 1034.2 -9.9 -9.999 -99.9 -99.99 -9.99
2018/01/14 13:48 EST    0.16   0.26   21   18   24  23.7 -99.9 1034.1 -9.9 -9.999 -99.9 -99.99 -9.99
2018/01/14 13:54 EST    0.18   0.31   20    7   23  24.1 -99.9 1034.1 -9.9 -9.999 -99.9 -99.99 -9.99
2018/01/14 14:00 EST    0.22   0.26   19   10   23  23.9 -99.9 1034.1 -9.9 -9.999 -99.9 -99.99 -9.99
2018/01/14 14:06 EST    0.25   0.34   20   12   26  24.1 -99.9 1034.0 -9.9 -9.999 -99.9 -99.99 -9.99
2018/01/14 14:12 EST    0.29   0.27   20    5   22  24.1 -99.9 1034.0 -9.9 -9.999 -99.9 -99.99 -9.99
2018/01/14 14:18 EST    0.32   0.36   21    7   24  23.9 -99.9 1033.9 -9.9 -9.999 -99.9 -99.99 -9.99
2018/01/14 14:24 EST    0.36   0.47   21    9   24  23.9 -99.9 1033.9 -9.9 -9.999 -99.9 -99.99 -9.99
2018/01/14 14:30 EST    0.41   0.37   18   11   22  24.1 -99.9 1033.9 -9.9 -9.999 -99.9 -99.99 -9.99
2018/01/14 14:36 EST    0.45   0.38   19   22   22  23.9 -99.9 1033.9 -9.9 -9.999 -99.9 -99.99 -9.99
2018/01/14 14:42 EST    0.50   0.54   20   18   24  24.1 -99.9 1034.0 -9.9 -9.999 -99.9 -99.99 -9.99
2018/01/14 14:48 EST    0.54   0.54   18   10   21  23.9 -99.9 1034.1 -9.9 -9.999 -99.9 -99.99 -9.99
2018/01/14 14:54 EST    0.59   0.49   19   13   24  24.1 -99.9 1034.1 -9.9 -9.999 -99.9 -99.99 -9.99
2018/01/14 15:00 EST    0.64   0.64   19   14   22  23.9 -99.9 1034.0 -9.9 -9.999 -99.9 -99.99 -9.99
2018/01/14 15:06 EST    0.70   0.62   18    8   23  24.1 -99.9 1034.0 -9.9 -9.999 -99.9 -99.99 -9.99
2018/01/14 15:12 EST    0.75   0.66   19   23   23  23.9 -99.9 1034.2 -9.9 -9.999 -99.9 -99.99 -9.99
2018/01/14 15:18 EST    0.80   0.72   19   13   23  23.9 -99.9 1034.3 -9.9 -9.999 -99.9 -99.99 -9.99
2018/01/14 15:24 EST    0.86   0.75   19   10   22  24.3 -99.9 1034.3 -9.9 -9.999 -99.9 -99.99 -9.99
2018/01/14 15:30 EST    0.91   0.84   18   13   23  24.6 -99.9 1034.2 -9.9 -9.999 -99.9 -99.99 -9.99
2018/01/14 15:36 EST    0.97   0.85   18    7   22  24.6 -99.9 1034.2 -9.9 -9.999 -99.9 -99.99 -9.99
2018/01/14 15:42 EST    1.02   0.86   18   15   23  24.6 -99.9 1034.3 -9.9 -9.999 -99.9 -99.99 -9.99
2018/01/14 15:48 EST    1.08   1.01   18   12   21  24.6 -99.9 1034.4 -9.9 -9.999 -99.9 -99.99 -9.99
2018/01/14 15:54 EST    1.14   1.11   19   14   22  24.6 -99.9 1034.4 -9.9 -9.999 -99.9 -99.99 -9.99
2018/01/14 16:00 EST    1.19   1.01   18   17   21  24.6 -99.9 1034.2 -9.9 -9.999 -99.9 -99.99 -9.99
2018/01/14 16:06 EST    1.25   1.12   18   11   21  24.6 -99.9 1034.2 -9.9 -9.999 -99.9 -99.99 -9.99
2018/01/14 16:12 EST    1.30   1.13   19    6   22  25.0 -99.9 1034.2 -9.9 -9.999 -99.9 -99.99 -9.99
2018/01/14 16:18 EST    1.35   1.25   18   18   21  25.0 -99.9 1034.2 -9.9 -9.999 -99.9 -99.99 -9.99
2018/01/14 16:24 EST    1.41   1.28   16   15   21  25.0 -99.9 1034.3 -9.9 -9.999 -99.9 -99.99 -9.99
2018/01/14 16:30 EST    1.46   1.39   16   14   22  25.3 -99.9 1034.3 -9.9 -9.999 -99.9 -99.99 -9.99
2018/01/14 16:36 EST    1.51   1.33   17   13   21  25.0 -99.9 1034.3 -9.9 -9.999 -99.9 -99.99 -9.99
2018/01/14 16:42 EST    1.56   1.44   17    8   22  25.0 -99.9 1034.3 -9.9 -9.999 -99.9 -99.99 -9.99
2018/01/14 16:48 EST    1.60   1.48   17   21   20  25.0 -99.9 1034.2 -9.9 -9.999 -99.9 -99.99 -9.99
2018/01/14 16:54 EST    1.65   1.71   17   12   20  25.0 -99.9 1034.1 -9.9 -9.999 -99.9 -99.99 -9.99
2018/01/14 17:00 EST    1.69   1.70   17   23   20  25.0 -99.9 1034.1 -9.9 -9.999 -99.9 -99.99 -9.99
2018/01/14 17:06 EST    1.73   1.66   17   19   20  25.0 -99.9 1034.0 -9.9 -9.999 -99.9 -99.99 -9.99
2018/01/14 17:12 EST    1.77   1.75   17   26   21  25.2 -99.9 1034.1 -9.9 -9.999 -99.9 -99.99 -9.99
2018/01/14 17:18 EST    1.81   1.81   17   27   20  25.0 -99.9 1034.0 -9.9 -9.999 -99.9 -99.99 -9.99
2018/01/14 17:24 EST    1.84   1.90   17   20   19  25.0 -99.9 1033.9 -9.9 -9.999 -99.9 -99.99 -9.99
2018/01/14 17:30 EST    1.87   1.88   16   36   21  25.3 -99.9 1033.9 -9.9 -9.999 -99.9 -99.99 -9.99
2018/01/14 17:36 EST    1.90   1.93   15   39   21  25.3 -99.9 1034.0 -9.9 -9.999 -99.9 -99.99 -9.99
2018/01/14 17:42 EST    1.93   1.90   15   33   19  25.2 -99.9 1034.1 -9.9 -9.999 -99.9 -99.99 -9.99
2018/01/14 17:48 EST    1.95   1.99   16   31   19  25.3 -99.9 1034.3 -9.9 -9.999 -99.9 -99.99 -9.99
2018/01/14 17:54 EST    1.98   2.01   14   37   18  25.3 -99.9 1034.4 -9.9 -9.999 -99.9 -99.99 -9.99
2018/01/14 18:00 EST    1.99   2.16   14   36   17  25.3 -99.9 1034.4 -9.9 -9.999 -99.9 -99.99 -9.99
2018/01/14 18:06 EST    2.01   2.01   14   38   17  25.5 -99.9 1034.3 -9.9 -9.999 -99.9 -99.99 -9.99
2018/01/14 18:12 EST    2.03   2.04   15   32   17  25.3 -99.9 1034.2 -9.9 -9.999 -99.9 -99.99 -9.99
2018/01/14 18:18 EST    2.04   2.02   13   39   17  25.9 -99.9 1034.3 -9.9 -9.999 -99.9 -99.99 -9.99
2018/01/14 18:24 EST    2.05   2.05   13   27   16  25.7 -99.9 1034.6 -9.9 -9.999 -99.9 -99.99 -9.99
2018/01/14 18:30 EST    2.05   2.09   13   27   15  25.7 -99.9 1034.7 -9.9 -9.999 -99.9 -99.99 -9.99
2018/01/14 18:36 EST    2.06   2.04   12   28   16  25.7 -99.9 1034.7 -9.9 -9.999 -99.9 -99.99 -9.99
2018/01/14 18:42 EST    2.06   2.02   14   30   17  25.9 -99.9 1034.5 -9.9 -9.999 -99.9 -99.99 -9.99
2018/01/14 18:48 EST    2.06   2.12   16   32   18  25.7 -99.9 1034.5 -9.9 -9.999 -99.9 -99.99 -9.99
2018/01/14 18:54 EST    2.06   1.96   15   33   17  25.9 -99.9 1034.6 -9.9 -9.999 -99.9 -99.99 -9.99
2018/01/14 19:00 EST    2.05   1.94   13   32   17  26.1 -99.9 1034.8 -9.9 -9.999 -99.9 -99.99 -9.99
2018/01/14 19:06 EST    2.04   1.96   15   25   18  25.9 -99.9 1034.9 -9.9 -9.999 -99.9 -99.99 -9.99
2018/01/14 19:12 EST    2.03   1.98   15   27   17  26.4 -99.9 1035.1 -9.9 -9.999 -99.9 -99.99 -9.99
2018/01/14 19:18 EST    2.02   1.93   14   30   17  26.4 -99.9 1035.1 -9.9 -9.999 -99.9 -99.99 -9.99
2018/01/14 19:24 EST    2.01   1.95   14   25   16  26.4 -99.9 1035.3 -9.9 -9.999 -99.9 -99.99 -9.99
2018/01/14 19:30 EST    1.99   1.93   14   21   16  26.6 -99.9 1035.3 -9.9 -9.999 -99.9 -99.99 -9.99
2018/01/14 19:36 EST    1.97   1.93   14   21   16  26.6 -99.9 1035.4 -9.9 -9.999 -99.9 -99.99 -9.99
2018/01/14 19:42 EST    1.95   1.97   14   26   17  27.0 -99.9 1035.4 -9.9 -9.999 -99.9 -99.99 -9.99
2018/01/14 19:48 EST    1.93   1.84   14   26   16  26.8 -99.9 1035.4 -9.9 -9.999 -99.9 -99.99 -9.99
2018/01/14 19:54 EST    1.90   1.81   14   23   17  26.6 -99.9 1035.4 -9.9 -9.999 -99.9 -99.99 -9.99
2018/01/14 20:00 EST    1.87   1.91   14   29   16  26.8 -99.9 1035.2 -9.9 -9.999 -99.9 -99.99 -9.99
2018/01/14 20:06 EST    1.84   1.88   15   32   18  26.8 -99.9 1035.3 -9.9 -9.999 -99.9 -99.99 -9.99
2018/01/14 20:12 EST    1.81   1.77   15   33   17  26.6 -99.9 1035.3 -9.9 -9.999 -99.9 -99.99 -9.99
2018/01/14 20:18 EST    1.77   1.69   15   32   17  26.8 -99.9 1035.2 -9.9 -9.999 -99.9 -99.99 -9.99
2018/01/14 20:24 EST    1.74   1.69   15   32   17  26.8 -99.9 1035.2 -9.9 -9.999 -99.9 -99.99 -9.99
2018/01/14 20:30 EST    1.70   1.64   15   32   17  26.8 -99.9 1035.1 -9.9 -9.999 -99.9 -99.99 -9.99
2018/01/14 20:36 EST    1.65   1.62   16   33   18  26.6 -99.9 1035.0 -9.9 -9.999 -99.9 -99.99 -9.99
2018/01/14 20:42 EST    1.61   1.58   16   33   19  26.6 -99.9 1035.1 -9.9 -9.999 -99.9 -99.99 -9.99
2018/01/14 20:48 EST    1.56   1.53   16   33   19  26.2 -99.9 1035.1 -9.9 -9.999 -99.9 -99.99 -9.99
2018/01/14 20:54 EST    1.52   1.51   15   30   19  26.4 -99.9 1035.1 -9.9 -9.999 -99.9 -99.99 -9.99
2018/01/14 21:00 EST    1.47   1.59   16   35   18  26.2 -99.9 1035.1 -9.9 -9.999 -99.9 -99.99 -9.99
2018/01/14 21:06 EST    1.41   1.45   16   33   18  26.2 -99.9 1035.1 -9.9 -9.999 -99.9 -99.99 -9.99
2018/01/14 21:12 EST    1.36   1.39   15   36   17  26.2 -99.9 1035.0 -9.9 -9.999 -99.9 -99.99 -9.99
2018/01/14 21:18 EST    1.31   1.38   16   35   19  26.2 -99.9 1035.1 -9.9 -9.999 -99.9 -99.99 -9.99
2018/01/14 21:24 EST    1.25   1.31   15   32   17  26.1 -99.9 1035.1 -9.9 -9.999 -99.9 -99.99 -9.99
2018/01/14 21:30 EST    1.20   1.22   16   37   18  25.9 -99.9 1035.1 -9.9 -9.999 -99.9 -99.99 -9.99
2018/01/14 21:36 EST    1.14   1.16   15   37   18  25.7 -99.9 1035.0 -9.9 -9.999 -99.9 -99.99 -9.99
2018/01/14 21:42 EST    1.08   1.08   16   40   18  25.9 -99.9 1034.9 -9.9 -9.999 -99.9 -99.99 -9.99
2018/01/14 21:48 EST    1.02   1.01   16   38   18  25.7 -99.9 1035.0 -9.9 -9.999 -99.9 -99.99 -9.99
2018/01/14 21:54 EST    0.96   0.98   17   42   19  25.5 -99.9 1034.9 -9.9 -9.999 -99.9 -99.99 -9.99
2018/01/14 22:00 EST    0.91   0.92   16   37   19  25.5 -99.9 1034.8 -9.9 -9.999 -99.9 -99.99 -9.99
2018/01/14 22:06 EST    0.85   0.89   14   37   19  25.7 -99.9 1035.0 -9.9 -9.999 -99.9 -99.99 -9.99
2018/01/14 22:12 EST    0.79   0.82   15   45   18  25.3 -99.9 1035.0 -9.9 -9.999 -99.9 -99.99 -9.99
2018/01/14 22:18 EST    0.74   0.72   15   35   17  25.5 -99.9 1034.8 -9.9 -9.999 -99.9 -99.99 -9.99
2018/01/14 22:24 EST    0.68   0.65   15   42   18  25.2 -99.9 1034.7 -9.9 -9.999 -99.9 -99.99 -9.99
2018/01/14 22:30 EST    0.63   0.61   14   34   17  25.3 -99.9 1034.7 -9.9 -9.999 -99.9 -99.99 -9.99
2018/01/14 22:36 EST    0.57   0.52   14   28   17  25.5 -99.9 1034.6 -9.9 -9.999 -99.9 -99.99 -9.99
2018/01/14 22:42 EST    0.52   0.53   15   26   17  25.2 -99.9 1034.6 -9.9 -9.999 -99.9 -99.99 -9.99
2018/01/14 22:48 EST    0.47   0.44   15   31   17  25.2 -99.9 1034.6 -9.9 -9.999 -99.9 -99.99 -9.99
2018/01/14 22:54 EST    0.42   0.44   15   18   17  25.3 -99.9 1034.5 -9.9 -9.999 -99.9 -99.99 -9.99
2018/01/14 23:00 EST    0.38   0.38   16   19   18  25.5 -99.9 1034.4 -9.9 -9.999 -99.9 -99.99 -9.99
2018/01/14 23:06 EST    0.33   0.34   17   26   19  25.3 -99.9 1034.4 -9.9 -9.999 -99.9 -99.99 -9.99
2018/01/14 23:12 EST    0.29   0.31   16   22   19  25.3 -99.9 1034.2 -9.9 -9.999 -99.9 -99.99 -9.99
2018/01/14 23:18 EST    0.25   0.28   16   27   18  25.5 -99.9 1034.1 -9.9 -9.999 -99.9 -99.99 -9.99
2018/01/14 23:24 EST    0.21   0.25   16   23   18  25.3 -99.9 1034.0 -9.9 -9.999 -99.9 -99.99 -9.99
2018/01/14 23:30 EST    0.17   0.21   16   21   18  25.3 -99.9 1033.9 -9.9 -9.999 -99.9 -99.99 -9.99
2018/01/14 23:36 EST    0.14   0.16   17   18   19  25.5 -99.9 1033.8 -9.9 -9.999 -99.9 -99.99 -9.99
2018/01/14 23:42 EST    0.11   0.13   17   23   20  25.5 -99.9 1033.7 -9.9 -9.999 -99.9 -99.99 -9.99
2018/01/14 23:48 EST    0.08   0.12   18   29   20  25.5 -99.9 1033.6 -9.9 -9.999 -99.9 -99.99 -9.99
2018/01/14 23:54 EST    0.06   0.14   17   17   19  25.9 -99.9 1033.5 -9.9 -9.999 -99.9 -99.99 -9.99
2018/01/15 00:00 EST    0.03   0.11   18   18   19  26.2 -99.9 1033.4 -9.9 -9.999 -99.9 -99.99 -9.99
2018/01/15 00:06 EST    0.01   0.11   18   25   20  26.1 -99.9 1033.3 -9.9 -9.999 -99.9 -99.99 -9.99
2018/01/15 00:12 EST   -0.00   0.08   18   22   21  26.2 -99.9 1033.2 -9.9 -9.999 -99.9 -99.99 -9.99
2018/01/15 00:18 EST   -0.02   0.13   20   19   22  26.4 -99.9 1033.2 -9.9 -9.999 -99.9 -99.99 -9.99
2018/01/15 00:24 EST   -0.03   0.09   19   18   22  27.0 -99.9 1033.1 -9.9 -9.999 -99.9 -99.99 -9.99
2018/01/15 00:30 EST   -0.04   0.13   20   18   22  27.1 -99.9 1033.0 -9.9 -9.999 -99.9 -99.99 -9.99
2018/01/15 00:36 EST   -0.04   0.14   21   19   23  27.0 -99.9 1032.8 -9.9 -9.999 -99.9 -99.99 -9.99
2018/01/15 00:42 EST   -0.04   0.16   20   21   23  27.3 -99.9 1032.8 -9.9 -9.999 -99.9 -99.99 -9.99
2018/01/15 00:48 EST   -0.04   0.22   20   21   23  27.7 -99.9 1032.8 -9.9 -9.999 -99.9 -99.99 -9.99
2018/01/15 00:54 EST   -0.04   0.14   19   19   23  27.9 -99.9 1032.8 -9.9 -9.999 -99.9 -99.99 -9.99
2018/01/15 01:00 EST   -0.03   0.23   20   17   23  27.9 -99.9 1032.7 -9.9 -9.999 -99.9 -99.99 -9.99
2018/01/15 01:06 EST   -0.02   0.23   20   14   22  28.0 -99.9 1032.6 -9.9 -9.999 -99.9 -99.99 -9.99
2018/01/15 01:12 EST   -0.00   0.13   19   18   23  28.0 -99.9 1032.4 -9.9 -9.999 -99.9 -99.99 -9.99
2018/01/15 01:18 EST    0.02   0.31   20   16   23  28.2 -99.9 1032.4 -9.9 -9.999 -99.9 -99.99 -9.99
2018/01/15 01:24 EST    0.04   0.28   20   12   23  28.0 -99.9 1032.3 -9.9 -9.999 -99.9 -99.99 -9.99
2018/01/15 01:30 EST    0.06   0.34   20   14   23  28.2 -99.9 1032.4 -9.9 -9.999 -99.9 -99.99 -9.99
2018/01/15 01:36 EST    0.09   0.37   21   16   24  27.9 -99.9 1032.4 -9.9 -9.999 -99.9 -99.99 -9.99
2018/01/15 01:42 EST    0.12   0.36   21   14   24  28.0 -99.9 1032.3 -9.9 -9.999 -99.9 -99.99 -9.99
2018/01/15 01:48 EST    0.15   0.43   21   17   24  27.9 -99.9 1032.2 -9.9 -9.999 -99.9 -99.99 -9.99
2018/01/15 01:54 EST    0.19   0.52   22   14   24  27.9 -99.9 1031.9 -9.9 -9.999 -99.9 -99.99 -9.99
2018/01/15 02:00 EST    0.22   0.58   22   18   25  28.0 -99.9 1031.8 -9.9 -9.999 -99.9 -99.99 -9.99
2018/01/15 02:06 EST    0.27   0.63   21   18   24  28.2 -99.9 1031.7 -9.9 -9.999 -99.9 -99.99 -9.99
2018/01/15 02:12 EST    0.31   0.52   22   12   25  28.0 -99.9 1031.6 -9.9 -9.999 -99.9 -99.99 -9.99
2018/01/15 02:18 EST    0.36   0.66   21   21   25  28.2 -99.9 1031.8 -9.9 -9.999 -99.9 -99.99 -9.99
2018/01/15 02:24 EST    0.40   0.65   22   19   23  28.0 -99.9 1031.8 -9.9 -9.999 -99.9 -99.99 -9.99
2018/01/15 02:30 EST    0.46   0.67   20   17   23  28.2 -99.9 1031.8 -9.9 -9.999 -99.9 -99.99 -9.99
2018/01/15 02:36 EST    0.51   0.78   19   22   22  28.4 -99.9 1031.8 -9.9 -9.999 -99.9 -99.99 -9.99
2018/01/15 02:42 EST    0.56   0.87   20   19   23  28.2 -99.9 1031.7 -9.9 -9.999 -99.9 -99.99 -9.99
2018/01/15 02:48 EST    0.62   0.83   21   13   23  28.0 -99.9 1031.6 -9.9 -9.999 -99.9 -99.99 -9.99
2018/01/15 02:54 EST    0.68   1.03   18   22   22  28.4 -99.9 1031.7 -9.9 -9.999 -99.9 -99.99 -9.99
2018/01/15 03:00 EST    0.74   1.01   19   18   22  28.2 -99.9 1031.5 -9.9 -9.999 -99.9 -99.99 -9.99
2018/01/15 03:06 EST    0.80   1.07   18   18   21  28.4 -99.9 1031.4 -9.9 -9.999 -99.9 -99.99 -9.99
2018/01/15 03:12 EST    0.87   1.16   19   25   22  28.0 -99.9 1031.3 -9.9 -9.999 -99.9 -99.99 -9.99
2018/01/15 03:18 EST    0.93   1.38   19   22   23  27.9 -99.9 1031.2 -9.9 -9.999 -99.9 -99.99 -9.99
2018/01/15 03:24 EST    1.00   1.52   20   21   22  27.9 -99.9 1031.1 -9.9 -9.999 -99.9 -99.99 -9.99
2018/01/15 03:30 EST    1.06   1.36   18   25   22  27.7 -99.9 1031.1 -9.9 -9.999 -99.9 -99.99 -9.99
2018/01/15 03:36 EST    1.13   1.58   17   16   21  27.9 -99.9 1031.4 -9.9 -9.999 -99.9 -99.99 -9.99
2018/01/15 03:42 EST    1.20   1.60   18   22   20  27.9 -99.9 1031.3 -9.9 -9.999 -99.9 -99.99 -9.99
2018/01/15 03:48 EST    1.27   1.70   17   14   19  27.9 -99.9 1031.3 -9.9 -9.999 -99.9 -99.99 -9.99
2018/01/15 03:54 EST    1.34   1.69   19   18   21  27.7 -99.9 1031.2 -9.9 -9.999 -99.9 -99.99 -9.99
2018/01/15 04:00 EST    1.41   1.90   18   14   21  28.0 -99.9 1031.2 -9.9 -9.999 -99.9 -99.99 -9.99
2018/01/15 04:06 EST    1.48   1.73   19   15   21  27.7 -99.9 1031.1 -9.9 -9.999 -99.9 -99.99 -9.99
2018/01/15 04:12 EST    1.55   1.98   20   19   23  27.7 -99.9 1031.1 -9.9 -9.999 -99.9 -99.99 -9.99
2018/01/15 04:18 EST    1.61   1.94   19   25   23  28.0 -99.9 1031.2 -9.9 -9.999 -99.9 -99.99 -9.99
2018/01/15 04:24 EST    1.68   2.19   19   23   22  28.0 -99.9 1031.1 -9.9 -9.999 -99.9 -99.99 -9.99
2018/01/15 04:30 EST    1.75   2.39   19   27   21  28.0 -99.9 1031.0 -9.9 -9.999 -99.9 -99.99 -9.99
2018/01/15 04:36 EST    1.81   2.31   17   18   21  28.6 -99.9 1030.9 -9.9 -9.999 -99.9 -99.99 -9.99
2018/01/15 04:42 EST    1.88   2.42   18   26   21  28.0 -99.9 1030.9 -9.9 -9.999 -99.9 -99.99 -9.99
2018/01/15 04:48 EST    1.94   2.43   19   23   21  28.0 -99.9 1030.9 -9.9 -9.999 -99.9 -99.99 -9.99
2018/01/15 04:54 EST    2.00   2.47   17   15   20  28.2 -99.9 1031.0 -9.9 -9.999 -99.9 -99.99 -9.99
2018/01/15 05:00 EST    2.06   2.65   17   10   19  28.2 -99.9 1031.1 -9.9 -9.999 -99.9 -99.99 -9.99
2018/01/15 05:06 EST    2.12   2.57   18   14   19  28.2 -99.9 1031.0 -9.9 -9.999 -99.9 -99.99 -9.99
2018/01/15 05:12 EST    2.18   2.59   18   15   20  28.6 -99.9 1030.9 -9.9 -9.999 -99.9 -99.99 -9.99
2018/01/15 05:18 EST    2.23   2.83   17   23   21  28.6 -99.9 1030.9 -9.9 -9.999 -99.9 -99.99 -9.99
2018/01/15 05:24 EST    2.28   2.70   18   26   21  28.4 -99.9 1031.0 -9.9 -9.999 -99.9 -99.99 -9.99
2018/01/15 05:30 EST    2.33   2.84   16   23   21  28.8 -99.9 1031.3 -9.9 -9.999 -99.9 -99.99 -9.99
2018/01/15 05:36 EST    2.37   2.92   19   15   21  28.2 -99.9 1031.0 -9.9 -9.999 -99.9 -99.99 -9.99
2018/01/15 05:42 EST    2.42   3.03   18   12   21  28.2 -99.9 1031.0 -9.9 -9.999 -99.9 -99.99 -9.99
2018/01/15 05:48 EST    2.45   2.93   17   12   20  28.2 -99.9 1031.1 -9.9 -9.999 -99.9 -99.99 -9.99
2018/01/15 05:54 EST    2.49   3.03   18   11   20  28.2 -99.9 1031.2 -9.9 -9.999 -99.9 -99.99 -9.99
2018/01/15 06:00 EST    2.52   3.06   18   15   20  28.2 -99.9 1031.2 -9.9 -9.999 -99.9 -99.99 -9.99
2018/01/15 06:06 EST    2.55   3.10   17   20   20  28.2 -99.9 1031.3 -9.9 -9.999 -99.9 -99.99 -9.99
2018/01/15 06:12 EST    2.58   3.17   16   18   19  28.2 -99.9 1031.3 -9.9 -9.999 -99.9 -99.99 -9.99
2018/01/15 06:18 EST    2.61   3.13   16   17   19  28.2 -99.9 1031.2 -9.9 -9.999 -99.9 -99.99 -9.99
2018/01/15 06:24 EST    2.63   3.36   16   21   19  28.2 -99.9 1031.3 -9.9 -9.999 -99.9 -99.99 -9.99
2018/01/15 06:30 EST    2.65   3.25   15   19   19  28.2 -99.9 1031.3 -9.9 -9.999 -99.9 -99.99 -9.99
2018/01/15 06:36 EST    2.66   3.18   15   28   17  28.2 -99.9 1031.4 -9.9 -9.999 -99.9 -99.99 -9.99
2018/01/15 06:42 EST    2.67   3.21   14   30   18  28.0 -99.9 1031.3 -9.9 -9.999 -99.9 -99.99 -9.99
2018/01/15 06:48 EST    2.68   3.26   14   32   16  28.0 -99.9 1031.4 -9.9 -9.999 -99.9 -99.99 -9.99
2018/01/15 06:54 EST    2.69   3.27   12   23   14  27.9 -99.9 1031.5 -9.9 -9.999 -99.9 -99.99 -9.99
2018/01/15 07:00 EST    2.69   3.34   12   31   15  27.9 -99.9 1031.6 -9.9 -9.999 -99.9 -99.99 -9.99
2018/01/15 07:06 EST    2.69   3.25   12   15   14  27.7 -99.9 1031.6 -9.9 -9.999 -99.9 -99.99 -9.99
2018/01/15 07:12 EST    2.69   3.33   11   26   13  27.9 -99.9 1031.5 -9.9 -9.999 -99.9 -99.99 -9.99
2018/01/15 07:18 EST    2.69   3.27   12   12   14  27.7 -99.9 1031.6 -9.9 -9.999 -99.9 -99.99 -9.99
2018/01/15 07:24 EST    2.68   3.34   11   21   13  28.0 -99.9 1031.7 -9.9 -9.999 -99.9 -99.99 -9.99
2018/01/15 07:30 EST    2.67   3.31   11   19   13  27.7 -99.9 1031.7 -9.9 -9.999 -99.9 -99.99 -9.99
2018/01/15 07:36 EST    2.66   3.30   11   17   13  28.2 -99.9 1031.8 -9.9 -9.999 -99.9 -99.99 -9.99
2018/01/15 07:42 EST    2.64   3.27   11   23   14  27.7 -99.9 1031.8 -9.9 -9.999 -99.9 -99.99 -9.99
2018/01/15 07:48 EST    2.62   3.31   11   16   14  27.9 -99.9 1032.1 -9.9 -9.999 -99.9 -99.99 -9.99
2018/01/15 07:54 EST    2.60   3.26   12    6   14  28.0 -99.9 1032.2 -9.9 -9.999 -99.9 -99.99 -9.99
2018/01/15 08:00 EST    2.58   3.24   13   10   14  27.9 -99.9 1032.1 -9.9 -9.999 -99.9 -99.99 -9.99
2018/01/15 08:06 EST    2.55   3.21   14   17   16  28.0 -99.9 1032.0 -9.9 -9.999 -99.9 -99.99 -9.99
2018/01/15 08:12 EST    2.52   3.26   13   19   16  27.9 -99.9 1032.0 -9.9 -9.999 -99.9 -99.99 -9.99
2018/01/15 08:18 EST    2.49   3.15   12   19   16  28.0 -99.9 1032.2 -9.9 -9.999 -99.9 -99.99 -9.99
2018/01/15 08:24 EST    2.46   3.11   12   19   16  27.9 -99.9 1032.3 -9.9 -9.999 -99.9 -99.99 -9.99
2018/01/15 08:30 EST    2.42   3.06   12   12   15  27.9 -99.9 1032.3 -9.9 -9.999 -99.9 -99.99 -9.99
2018/01/15 08:36 EST    2.38   3.02   12   15   16  28.0 -99.9 1032.4 -9.9 -9.999 -99.9 -99.99 -9.99
2018/01/15 08:42 EST    2.34   2.92   12   11   14  28.0 -99.9 1032.5 -9.9 -9.999 -99.9 -99.99 -9.99
2018/01/15 08:48 EST    2.30   2.93   11   16   15  28.0 -99.9 1032.7 -9.9 -9.999 -99.9 -99.99 -9.99
2018/01/15 08:54 EST    2.25   2.88   11    7   14  28.4 -99.9 1032.7 -9.9 -9.999 -99.9 -99.99 -9.99
2018/01/15 09:00 EST    2.20   2.79   12    6   13  28.4 -99.9 1032.7 -9.9 -9.999 -99.9 -99.99 -9.99
2018/01/15 09:06 EST    2.15   2.70   12    7   14  28.4 -99.9 1032.6 -9.9 -9.999 -99.9 -99.99 -9.99
2018/01/15 09:12 EST    2.09   2.70   12    7   14  28.6 -99.9 1032.7 -9.9 -9.999 -99.9 -99.99 -9.99
2018/01/15 09:18 EST    2.03   2.66   13   10   15  28.6 -99.9 1032.6 -9.9 -9.999 -99.9 -99.99 -9.99
2018/01/15 09:24 EST    1.97   2.62   13   11   16  28.8 -99.9 1032.5 -9.9 -9.999 -99.9 -99.99 -9.99
2018/01/15 09:30 EST    1.91   2.57   13    7   17  28.6 -99.9 1032.4 -9.9 -9.999 -99.9 -99.99 -9.99
2018/01/15 09:36 EST    1.85   2.47   14    6   16  28.6 -99.9 1032.3 -9.9 -9.999 -99.9 -99.99 -9.99
2018/01/15 09:42 EST    1.79   2.37   14   10   15  28.9 -99.9 1032.4 -9.9 -9.999 -99.9 -99.99 -9.99
2018/01/15 09:48 EST    1.72   2.24   14    2   16  29.1 -99.9 1032.4 -9.9 -9.999 -99.9 -99.99 -9.99
2018/01/15 09:54 EST    1.65   2.25   16  359   18  28.9 -99.9 1032.3 -9.9 -9.999 -99.9 -99.99 -9.99
2018/01/15 10:00 EST    1.58   2.24   17    3   18  28.9 -99.9 1032.2 -9.9 -9.999 -99.9 -99.99 -9.99
2018/01/15 10:06 EST    1.52   2.14   15    3   17  29.1 -99.9 1032.3 -9.9 -9.999 -99.9 -99.99 -9.99
2018/01/15 10:12 EST    1.45   2.08   16  358   17  29.1 -99.9 1032.3 -9.9 -9.999 -99.9 -99.99 -9.99
2018/01/15 10:18 EST    1.38   2.08   15  357   18  29.1 -99.9 1032.3 -9.9 -9.999 -99.9 -99.99 -9.99
2018/01/15 10:24 EST    1.31   1.86   16    5   18  28.9 -99.9 1032.2 -9.9 -9.999 -99.9 -99.99 -9.99
2018/01/15 10:30 EST    1.24   1.75   15    2   18  28.9 -99.9 1032.2 -9.9 -9.999 -99.9 -99.99 -9.99
2018/01/15 10:36 EST    1.17   1.70   15    5   18  29.1 -99.9 1032.2 -9.9 -9.999 -99.9 -99.99 -9.99
2018/01/15 10:42 EST    1.10   1.70   15    2   18  29.1 -99.9 1032.1 -9.9 -9.999 -99.9 -99.99 -9.99
2018/01/15 10:48 EST    1.03   1.55   16    2   18  29.1 -99.9 1032.0 -9.9 -9.999 -99.9 -99.99 -9.99
2018/01/15 10:54 EST    0.96   1.50   17    4   18  28.9 -99.9 1031.9 -9.9 -9.999 -99.9 -99.99 -9.99
2018/01/15 11:00 EST    0.89   1.43   16    3   19  28.9 -99.9 1031.8 -9.9 -9.999 -99.9 -99.99 -9.99
2018/01/15 11:06 EST    0.83   1.37   17  350   19  29.1 -99.9 1031.6 -9.9 -9.999 -99.9 -99.99 -9.99
2018/01/15 11:12 EST    0.76   1.23   17  353   20  28.9 -99.9 1031.6 -9.9 -9.999 -99.9 -99.99 -9.99
2018/01/15 11:18 EST    0.70   1.25   17  352   20  28.9 -99.9 1031.6 -9.9 -9.999 -99.9 -99.99 -9.99
2018/01/15 11:24 EST    0.64   1.19   17  350   20  29.3 -99.9 1031.5 -9.9 -9.999 -99.9 -99.99 -9.99
2018/01/15 11:30 EST    0.58   1.08   17  343   19  29.3 -99.9 1031.2 -9.9 -9.999 -99.9 -99.99 -9.99
2018/01/15 11:36 EST    0.53   1.00   18  349   20  29.3 -99.9 1031.1 -9.9 -9.999 -99.9 -99.99 -9.99
2018/01/15 11:42 EST    0.47   0.93   18  344   20  29.3 -99.9 1031.0 -9.9 -9.999 -99.9 -99.99 -9.99
2018/01/15 11:48 EST    0.42   0.90   18  341   22  29.5 -99.9 1030.9 -9.9 -9.999 -99.9 -99.99 -9.99
2018/01/15 11:54 EST    0.37   0.86   18  344   20  29.1 -99.9 1030.7 -9.9 -9.999 -99.9 -99.99 -9.99
2018/01/15 12:00 EST    0.32   0.86   18  351   21  29.3 -99.9 1030.5 -9.9 -9.999 -99.9 -99.99 -9.99
2018/01/15 12:06 EST    0.28   0.72   18  353   20  29.5 -99.9 1030.3 -9.9 -9.999 -99.9 -99.99 -9.99
2018/01/15 12:12 EST    0.24   0.76   17    1   20  29.5 -99.9 1030.1 -9.9 -9.999 -99.9 -99.99 -9.99
2018/01/15 12:18 EST    0.20   0.73   17  359   21  29.7 -99.9 1030.1 -9.9 -9.999 -99.9 -99.99 -9.99
2018/01/15 12:24 EST    0.16   0.72   19  350   21  29.3 -99.9 1030.0 -9.9 -9.999 -99.9 -99.99 -9.99
2018/01/15 12:30 EST    0.13   0.61   18    1   22  29.3 -99.9 1029.9 -9.9 -9.999 -99.9 -99.99 -9.99
2018/01/15 12:36 EST    0.10   0.60   19  351   22  29.3 -99.9 1029.8 -9.9 -9.999 -99.9 -99.99 -9.99
2018/01/15 12:42 EST    0.07   0.45   21  344   23  29.5 -99.9 1029.8 -9.9 -9.999 -99.9 -99.99 -9.99
2018/01/15 12:48 EST    0.05   0.50   19  356   23  29.5 -99.9 1029.4 -9.9 -9.999 -99.9 -99.99 -9.99
2018/01/15 12:54 EST    0.02   0.45   19  356   22  29.5 -99.9 1029.4 -9.9 -9.999 -99.9 -99.99 -9.99
2018/01/15 13:00 EST    0.01   0.52   21  357   23  29.3 -99.9 1029.3 -9.9 -9.999 -99.9 -99.99 -9.99
2018/01/15 13:06 EST   -0.01   0.66   21  356   24  29.5 -99.9 1029.4 -9.9 -9.999 -99.9 -99.99 -9.99
2018/01/15 13:12 EST   -0.02   0.51   19  353   25  29.8 -99.9 1029.4 -9.9 -9.999 -99.9 -99.99 -9.99
2018/01/15 13:18 EST   -0.03   0.49   19  348   24  29.7 -99.9 1029.5 -9.9 -9.999 -99.9 -99.99 -9.99
2018/01/15 13:24 EST   -0.04   0.58   21  352   24  29.5 -99.9 1029.5 -9.9 -9.999 -99.9 -99.99 -9.99
2018/01/15 13:30 EST   -0.04   0.61   20  348   23  29.7 -99.9 1029.5 -9.9 -9.999 -99.9 -99.99 -9.99
2018/01/15 13:36 EST   -0.04   0.55   20  344   24  29.7 -99.9 1029.6 -9.9 -9.999 -99.9 -99.99 -9.99
2018/01/15 13:42 EST   -0.03   0.58   19  354   23  29.8 -99.9 1029.7 -9.9 -9.999 -99.9 -99.99 -9.99
2018/01/15 13:48 EST   -0.02   0.61   19  346   22  29.8 -99.9 1029.6 -9.9 -9.999 -99.9 -99.99 -9.99
2018/01/15 13:54 EST   -0.01   0.62   20  353   22  30.0 -99.9 1029.6 -9.9 -9.999 -99.9 -99.99 -9.99
2018/01/15 14:00 EST    0.00   0.54   18  352   22  30.4 -99.9 1029.7 -9.9 -9.999 -99.9 -99.99 -9.99
2018/01/15 14:06 EST    0.02   0.60   19  355   22  30.6 -99.9 1029.7 -9.9 -9.999 -99.9 -99.99 -9.99
2018/01/15 14:12 EST    0.04   0.65   20  351   22  30.6 -99.9 1029.7 -9.9 -9.999 -99.9 -99.99 -9.99
2018/01/15 14:18 EST    0.06   0.59   18  346   19  30.7 -99.9 1029.7 -9.9 -9.999 -99.9 -99.99 -9.99
2018/01/15 14:24 EST    0.09   0.71   18  346   20  31.1 -99.9 1029.7 -9.9 -9.999 -99.9 -99.99 -9.99
2018/01/15 14:30 EST    0.12   0.70   18  352   21  31.3 -99.9 1029.7 -9.9 -9.999 -99.9 -99.99 -9.99
2018/01/15 14:36 EST    0.15   0.70   17  360   20  31.5 -99.9 1029.7 -9.9 -9.999 -99.9 -99.99 -9.99
2018/01/15 14:42 EST    0.18   0.75   17    2   20  31.5 -99.9 1029.6 -9.9 -9.999 -99.9 -99.99 -9.99
2018/01/15 14:48 EST    0.22   0.80   17  350   20  31.6 -99.9 1029.3 -9.9 -9.999 -99.9 -99.99 -9.99
2018/01/15 14:54 EST    0.26   0.76   17    7   19  31.6 -99.9 1029.1 -9.9 -9.999 -99.9 -99.99 -9.99
2018/01/15 15:00 EST    0.30   0.73   17    4   19  31.5 -99.9 1029.2 -9.9 -9.999 -99.9 -99.99 -9.99
2018/01/15 15:06 EST    0.34   0.75   17    5   20  31.6 -99.9 1029.2 -9.9 -9.999 -99.9 -99.99 -9.99
2018/01/15 15:12 EST    0.38   0.83   17    3   19  31.5 -99.9 1029.1 -9.9 -9.999 -99.9 -99.99 -9.99
2018/01/15 15:18 EST    0.43   0.86   17    2   21  31.5 -99.9 1029.1 -9.9 -9.999 -99.9 -99.99 -9.99
2018/01/15 15:24 EST    0.48   0.95   16    8   19  31.6 -99.9 1029.0 -9.9 -9.999 -99.9 -99.99 -9.99
2018/01/15 15:30 EST    0.53   0.93   16    7   19  31.8 -99.9 1029.1 -9.9 -9.999 -99.9 -99.99 -9.99
2018/01/15 15:36 EST    0.58   1.01   17    4   19  31.8 -99.9 1029.3 -9.9 -9.999 -99.9 -99.99 -9.99
2018/01/15 15:42 EST    0.64   1.05   18    3   20  31.6 -99.9 1029.4 -9.9 -9.999 -99.9 -99.99 -9.99
2018/01/15 15:48 EST    0.69   1.11   17    3   20  31.5 -99.9 1029.5 -9.9 -9.999 -99.9 -99.99 -9.99
2018/01/15 15:54 EST    0.75   1.12   18  354   20  31.6 -99.9 1029.6 -9.9 -9.999 -99.9 -99.99 -9.99
2018/01/15 16:00 EST    0.80   1.20   17  350   20  31.5 -99.9 1029.6 -9.9 -9.999 -99.9 -99.99 -9.99
2018/01/15 16:06 EST    0.86   1.33   19    3   21  31.5 -99.9 1029.6 -9.9 -9.999 -99.9 -99.99 -9.99
2018/01/15 16:12 EST    0.92   1.38   17  359   20  31.8 -99.9 1029.8 -9.9 -9.999 -99.9 -99.99 -9.99
2018/01/15 16:18 EST    0.98   1.42   19    3   22  31.6 -99.9 1029.7 -9.9 -9.999 -99.9 -99.99 -9.99
2018/01/15 16:24 EST    1.04   1.56   18    4   20  31.8 -99.9 1029.7 -9.9 -9.999 -99.9 -99.99 -9.99
2018/01/15 16:30 EST    1.10   1.57   19    9   20  31.8 -99.9 1029.8 -9.9 -9.999 -99.9 -99.99 -9.99
2018/01/15 16:36 EST    1.16   1.70   17    3   20  32.0 -99.9 1030.0 -9.9 -9.999 -99.9 -99.99 -9.99
2018/01/15 16:42 EST    1.21   1.65   18  359   20  31.8 -99.9 1030.1 -9.9 -9.999 -99.9 -99.99 -9.99
2018/01/15 16:48 EST    1.27   1.77   19  352   21  31.8 -99.9 1030.1 -9.9 -9.999 -99.9 -99.99 -9.99
2018/01/15 16:54 EST    1.33   1.75   18    2   20  32.0 -99.9 1030.2 -9.9 -9.999 -99.9 -99.99 -9.99
2018/01/15 17:00 EST    1.39   1.88   18  348   21  32.0 -99.9 1030.4 -9.9 -9.999 -99.9 -99.99 -9.99
2018/01/15 17:06 EST    1.44   2.01   18  351   20  32.2 -99.9 1030.5 -9.9 -9.999 -99.9 -99.99 -9.99
2018/01/15 17:12 EST    1.50   1.96   19  352   21  32.0 -99.9 1030.5 -9.9 -9.999 -99.9 -99.99 -9.99
2018/01/15 17:18 EST    1.55   2.04   20  342   21  32.0 -99.9 1030.6 -9.9 -9.999 -99.9 -99.99 -9.99
2018/01/15 17:24 EST    1.60   2.18   19  347   21  32.0 -99.9 1030.6 -9.9 -9.999 -99.9 -99.99 -9.99
2018/01/15 17:30 EST    1.65   2.13   20  348   22  32.0 -99.9 1030.7 -9.9 -9.999 -99.9 -99.99 -9.99
2018/01/15 17:36 EST    1.70   2.31   19  359   22  32.2 -99.9 1030.3 -9.9 -9.999 -99.9 -99.99 -9.99
2018/01/15 17:42 EST    1.74   2.24   18    5   20  32.0 -99.9 1030.1 -9.9 -9.999 -99.9 -99.99 -9.99
2018/01/15 17:48 EST    1.78   2.25   17  354   20  32.0 -99.9 1030.1 -9.9 -9.999 -99.9 -99.99 -9.99
2018/01/15 17:54 EST    1.82   2.32   17    6   19  32.0 -99.9 1030.1 -9.9 -9.999 -99.9 -99.99 -9.99
2018/01/15 18:00 EST    1.86   2.46   17    6   19  32.0 -99.9 1030.0 -9.9 -9.999 -99.9 -99.99 -9.99
2018/01/15 18:06 EST    1.90   2.38   14    8   18  32.0 -99.9 1029.9 -9.9 -9.999 -99.9 -99.99 -9.99
2018/01/15 18:12 EST    1.93   2.59   13   15   16  32.0 -99.9 1029.8 -9.9 -9.999 -99.9 -99.99 -9.99
2018/01/15 18:18 EST    1.96   2.48   15   12   16  32.0 -99.9 1029.8 -9.9 -9.999 -99.9 -99.99 -9.99
2018/01/15 18:24 EST    1.98   2.48   15    9   17  32.2 -99.9 1029.8 -9.9 -9.999 -99.9 -99.99 -9.99
2018/01/15 18:30 EST    2.01   2.51   14    7   16  32.2 -99.9 1029.7 -9.9 -9.999 -99.9 -99.99 -9.99
2018/01/15 18:36 EST    2.03   2.58   15    7   17  32.0 -99.9 1029.7 -9.9 -9.999 -99.9 -99.99 -9.99
2018/01/15 18:42 EST    2.05   2.63   14    4   16  32.4 -99.9 1030.0 -9.9 -9.999 -99.9 -99.99 -9.99
2018/01/15 18:48 EST    2.06   2.71   16    9   17  32.2 -99.9 1029.9 -9.9 -9.999 -99.9 -99.99 -9.99
2018/01/15 18:54 EST    2.08   2.68   15    2   17  32.2 -99.9 1029.9 -9.9 -9.999 -99.9 -99.99 -9.99
2018/01/15 19:00 EST    2.09   2.72   13    2   17  32.4 -99.9 1030.1 -9.9 -9.999 -99.9 -99.99 -9.99
2018/01/15 19:06 EST    2.09   2.68   16    3   17  32.0 -99.9 1029.9 -9.9 -9.999 -99.9 -99.99 -9.99
2018/01/15 19:12 EST    2.10   2.63   16    8   17  32.0 -99.9 1029.7 -9.9 -9.999 -99.9 -99.99 -9.99
2018/01/15 19:18 EST    2.10   2.63   15    4   17  31.8 -99.9 1029.5 -9.9 -9.999 -99.9 -99.99 -9.99
2018/01/15 19:24 EST    2.10   2.70   16    2   18  32.0 -99.9 1029.8 -9.9 -9.999 -99.9 -99.99 -9.99
2018/01/15 19:30 EST    2.10   2.71   16    4   18  32.0 -99.9 1029.9 -9.9 -9.999 -99.9 -99.99 -9.99
2018/01/15 19:36 EST    2.09   2.68   17    0   19  32.2 -99.9 1030.2 -9.9 -9.999 -99.9 -99.99 -9.99
2018/01/15 19:42 EST    2.09   2.71   19  350   21  32.2 -99.9 1030.3 -9.9 -9.999 -99.9 -99.99 -9.99
2018/01/15 19:48 EST    2.08   2.69   19  349   21  32.0 -99.9 1030.4 -9.9 -9.999 -99.9 -99.99 -9.99
2018/01/15 19:54 EST    2.07   2.72   17  359   20  32.2 -99.9 1030.4 -9.9 -9.999 -99.9 -99.99 -9.99
2018/01/15 20:00 EST    2.05   2.68   17  360   19  32.2 -99.9 1030.5 -9.9 -9.999 -99.9 -99.99 -9.99
2018/01/15 20:06 EST    2.04   2.68   16  358   20  32.5 -99.9 1030.5 -9.9 -9.999 -99.9 -99.99 -9.99
2018/01/15 20:12 EST    2.02   2.67   18    0   20  32.4 -99.9 1030.4 -9.9 -9.999 -99.9 -99.99 -9.99
2018/01/15 20:18 EST    2.00   2.65   17    4   19  32.4 -99.9 1030.4 -9.9 -9.999 -99.9 -99.99 -9.99
2018/01/15 20:24 EST    1.98   2.64   17    3   19  32.5 -99.9 1030.4 -9.9 -9.999 -99.9 -99.99 -9.99
2018/01/15 20:30 EST    1.95   2.58   17    6   20  32.5 -99.9 1030.5 -9.9 -9.999 -99.9 -99.99 -9.99
2018/01/15 20:36 EST    1.92   2.54   17    1   19  32.5 -99.9 1030.4 -9.9 -9.999 -99.9 -99.99 -9.99
2018/01/15 20:42 EST    1.89   2.52   17    3   19  32.5 -99.9 1030.6 -9.9 -9.999 -99.9 -99.99 -9.99
2018/01/15 20:48 EST    1.86   2.47   17    3   19  32.4 -99.9 1030.7 -9.9 -9.999 -99.9 -99.99 -9.99
2018/01/15 20:54 EST    1.83   2.47   17    9   19  32.5 -99.9 1030.6 -9.9 -9.999 -99.9 -99.99 -9.99
2018/01/15 21:00 EST    1.79   2.42   15    6   18  32.5 -99.9 1030.6 -9.9 -9.999 -99.9 -99.99 -9.99
2018/01/15 21:06 EST    1.75   2.34   14   10   18  32.5 -99.9 1030.5 -9.9 -9.999 -99.9 -99.99 -9.99
2018/01/15 21:12 EST    1.71   2.26   14   19   16  32.5 -99.9 1030.4 -9.9 -9.999 -99.9 -99.99 -9.99
2018/01/15 21:18 EST    1.67   2.20   15   18   17  32.4 -99.9 1030.4 -9.9 -9.999 -99.9 -99.99 -9.99
2018/01/15 21:24 EST    1.63   2.14   13   15   16  32.7 -99.9 1030.5 -9.9 -9.999 -99.9 -99.99 -9.99
2018/01/15 21:30 EST    1.58   2.11   13   13   15  32.7 -99.9 1030.5 -9.9 -9.999 -99.9 -99.99 -9.99
2018/01/15 21:36 EST    1.53   2.12   12   14   15  32.9 -99.9 1030.5 -9.9 -9.999 -99.9 -99.99 -9.99
2018/01/15 21:42 EST    1.48   2.02   13   20   15  32.9 -99.9 1030.3 -9.9 -9.999 -99.9 -99.99 -9.99
2018/01/15 21:48 EST    1.43   2.01   12   20   15  32.9 -99.9 1030.4 -9.9 -9.999 -99.9 -99.99 -9.99
2018/01/15 21:54 EST    1.37   1.94   12   19   14  33.1 -99.9 1030.5 -9.9 -9.999 -99.9 -99.99 -9.99
2018/01/15 22:00 EST    1.32   1.91   12   12   13  33.1 -99.9 1030.5 -9.9 -9.999 -99.9 -99.99 -9.99
2018/01/15 22:06 EST    1.26   1.82   12    7   14  33.1 -99.9 1030.6 -9.9 -9.999 -99.9 -99.99 -9.99
2018/01/15 22:12 EST    1.20   1.77   12    7   14  33.1 -99.9 1030.7 -9.9 -9.999 -99.9 -99.99 -9.99
2018/01/15 22:18 EST    1.14   1.74   12    4   13  32.9 -99.9 1030.7 -9.9 -9.999 -99.9 -99.99 -9.99
2018/01/15 22:24 EST    1.08   1.68   10    8   12  33.1 -99.9 1030.7 -9.9 -9.999 -99.9 -99.99 -9.99
2018/01/15 22:30 EST    1.02   1.58   10    9   11  33.3 -99.9 1030.7 -9.9 -9.999 -99.9 -99.99 -9.99
2018/01/15 22:36 EST    0.96   1.55   10    5   11  33.3 -99.9 1030.7 -9.9 -9.999 -99.9 -99.99 -9.99
2018/01/15 22:42 EST    0.90   1.49   10    2   11  33.1 -99.9 1030.7 -9.9 -9.999 -99.9 -99.99 -9.99
2018/01/15 22:48 EST    0.84   1.44    9    5   11  33.3 -99.9 1030.6 -9.9 -9.999 -99.9 -99.99 -9.99
2018/01/15 22:54 EST    0.78   1.38    8    6   11  33.1 -99.9 1030.5 -9.9 -9.999 -99.9 -99.99 -9.99
2018/01/15 23:00 EST    0.72   1.32    9    6   11  33.1 -99.9 1030.6 -9.9 -9.999 -99.9 -99.99 -9.99
2018/01/15 23:06 EST    0.66   1.26    8   11   10  33.1 -99.9 1030.5 -9.9 -9.999 -99.9 -99.99 -9.99
2018/01/15 23:12 EST    0.61   1.22    6   16    9  32.9 -99.9 1030.4 -9.9 -9.999 -99.9 -99.99 -9.99
2018/01/15 23:18 EST    0.55   1.15    6   12    7  32.9 -99.9 1030.3 -9.9 -9.999 -99.9 -99.99 -9.99
2018/01/15 23:24 EST    0.50   1.08    6    6    9  33.1 -99.9 1030.2 -9.9 -9.999 -99.9 -99.99 -9.99
2018/01/15 23:30 EST    0.44   0.99    6    5    7  33.1 -99.9 1030.3 -9.9 -9.999 -99.9 -99.99 -9.99
2018/01/15 23:36 EST    0.39   0.97    6  360    7  32.9 -99.9 1030.1 -9.9 -9.999 -99.9 -99.99 -9.99
2018/01/15 23:42 EST    0.34   0.94    6    6    7  32.9 -99.9 1030.0 -9.9 -9.999 -99.9 -99.99 -9.99
2018/01/15 23:48 EST    0.30   0.89    7   11    8  32.9 -99.9 1029.9 -9.9 -9.999 -99.9 -99.99 -9.99
2018/01/15 23:54 EST    0.25   0.84    7    4    9  32.7 -99.9 1029.9 -9.9 -9.999 -99.9 -99.99 -9.99
2018/01/16 00:00 EST    0.21   0.81    7    4    8  32.9 -99.9 1029.8 -9.9 -9.999 -99.9 -99.99 -9.99
2018/01/16 00:06 EST    0.17   0.76    7    4    8  32.9 -99.9 1029.7 -9.9 -9.999 -99.9 -99.99 -9.99
2018/01/16 00:12 EST    0.14   0.73    7  348    8  32.9 -99.9 1029.6 -9.9 -9.999 -99.9 -99.99 -9.99
2018/01/16 00:18 EST    0.10   0.71    8    3    9  32.9 -99.9 1029.7 -9.9 -9.999 -99.9 -99.99 -9.99
2018/01/16 00:24 EST    0.07   0.68    8    5    9  32.9 -99.9 1029.7 -9.9 -9.999 -99.9 -99.99 -9.99
2018/01/16 00:30 EST    0.04   0.66    9  354   10  32.9 -99.9 1029.7 -9.9 -9.999 -99.9 -99.99 -9.99
2018/01/16 00:36 EST    0.02   0.58   10  345   11  32.9 -99.9 1029.6 -9.9 -9.999 -99.9 -99.99 -9.99
2018/01/16 00:42 EST   -0.01   0.57   10  348   12  33.1 -99.9 1029.7 -9.9 -9.999 -99.9 -99.99 -9.99
2018/01/16 00:48 EST   -0.03   0.51   11  346   13  32.9 -99.9 1029.7 -9.9 -9.999 -99.9 -99.99 -9.99
2018/01/16 00:54 EST   -0.04   0.48   11  340   13  32.7 -99.9 1029.6 -9.9 -9.999 -99.9 -99.99 -9.99
2018/01/16 01:00 EST   -0.06   0.44   11  347   13  32.5 -99.9 1029.3 -9.9 -9.999 -99.9 -99.99 -9.99
2018/01/16 01:06 EST   -0.07   0.43   12  344   13  32.5 -99.9 1029.4 -9.9 -9.999 -99.9 -99.99 -9.99
2018/01/16 01:12 EST   -0.07   0.44   12  356   13  32.5 -99.9 1029.3 -9.9 -9.999 -99.9 -99.99 -9.99
2018/01/16 01:18 EST   -0.08   0.40   11  344   13  32.5 -99.9 1029.5 -9.9 -9.999 -99.9 -99.99 -9.99
2018/01/16 01:24 EST   -0.08   0.40   12  346   13  32.4 -99.9 1029.6 -9.9 -9.999 -99.9 -99.99 -9.99
2018/01/16 01:30 EST   -0.07   0.39   10  352   12  32.4 -99.9 1029.5 -9.9 -9.999 -99.9 -99.99 -9.99
2018/01/16 01:36 EST   -0.07   0.40   10  353   12  32.4 -99.9 1029.4 -9.9 -9.999 -99.9 -99.99 -9.99
2018/01/16 01:42 EST   -0.06   0.43   10    3   11  32.4 -99.9 1029.4 -9.9 -9.999 -99.9 -99.99 -9.99
2018/01/16 01:48 EST   -0.04   0.44    9    2   11  32.4 -99.9 1029.3 -9.9 -9.999 -99.9 -99.99 -9.99
2018/01/16 01:54 EST   -0.03   0.49   10    6   11  32.2 -99.9 1029.3 -9.9 -9.999 -99.9 -99.99 -9.99
2018/01/16 02:00 EST   -0.01   0.47    8    5   10  32.4 -99.9 1029.2 -9.9 -9.999 -99.9 -99.99 -9.99
2018/01/16 02:06 EST    0.02   0.54    8  353   11  32.2 -99.9 1029.3 -9.9 -9.999 -99.9 -99.99 -9.99
2018/01/16 02:12 EST    0.04   0.56   10  355   11  32.2 -99.9 1029.4 -9.9 -9.999 -99.9 -99.99 -9.99
2018/01/16 02:18 EST    0.07   0.60   11  346   12  32.4 -99.9 1029.4 -9.9 -9.999 -99.9 -99.99 -9.99
2018/01/16 02:24 EST    0.10   0.67   10  348   12  32.2 -99.9 1029.6 -9.9 -9.999 -99.9 -99.99 -9.99
2018/01/16 02:30 EST    0.14   0.70   11  340   12  32.2 -99.9 1029.7 -9.9 -9.999 -99.9 -99.99 -9.99
2018/01/16 02:36 EST    0.18   0.77   11  354   13  31.8 -99.9 1029.6 -9.9 -9.999 -99.9 -99.99 -9.99
2018/01/16 02:42 EST    0.22 -99.99 -999 -999 -999 -99.9 -99.9 -999.9 -9.9 -9.999 -99.9 -99.99 -9.99
2018/01/16 02:48 EST    0.26 -99.99 -999 -999 -999 -99.9 -99.9 -999.9 -9.9 -9.999 -99.9 -99.99 -9.99

Revised: 10/15/2013
NOAA / National Ocean Service
Web site owner: Center for Operational Oceanographic Products and Services